<?xml version='1.0' encoding='UTF-8'?><gpx version="1.1" creator="JPX - https://github.com/jenetics/jpx" xmlns="http://www.topografix.com/GPX/1/1"><trk><trkseg><trkpt lat="49.49170972370405" lon="3.0090785258477912"><ele>71.2</ele><time>2026-04-07T08:41:49Z</time></trkpt><trkpt lat="49.49168163701476" lon="3.009253171379773"><ele>71.39999999999999</ele><time>2026-04-07T08:41:51Z</time></trkpt><trkpt lat="49.491677237177036" lon="3.009395194085235"><ele>71.6</ele><time>2026-04-07T08:41:53Z</time></trkpt><trkpt lat="49.49165961366394" lon="3.0094962657748647"><ele>71.8</ele><time>2026-04-07T08:41:55Z</time></trkpt><trkpt lat="49.49158871315255" lon="3.0095202688484344"><ele>72.0</ele><time>2026-04-07T08:41:57Z</time></trkpt><trkpt lat="49.49147552466557" lon="3.0093979850228423"><ele>72.0</ele><time>2026-04-07T08:41:59Z</time></trkpt><trkpt lat="49.491383043400994" lon="3.0093223129335622"><ele>72.0</ele><time>2026-04-07T08:42:00Z</time></trkpt><trkpt lat="49.49128849905749" lon="3.0092359872550096"><ele>72.0</ele><time>2026-04-07T08:42:01Z</time></trkpt><trkpt lat="49.491195571514325" lon="3.009159381698004"><ele>72.0</ele><time>2026-04-07T08:42:02Z</time></trkpt><trkpt lat="49.49109931769196" lon="3.0090699014592075"><ele>72.0</ele><time>2026-04-07T08:42:03Z</time></trkpt><trkpt lat="49.49100631706004" lon="3.008988388230045"><ele>71.8</ele><time>2026-04-07T08:42:04Z</time></trkpt><trkpt lat="49.490916183870816" lon="3.0089080988703785"><ele>71.6</ele><time>2026-04-07T08:42:05Z</time></trkpt><trkpt lat="49.49082544251117" lon="3.008827183222104"><ele>71.39999999999999</ele><time>2026-04-07T08:42:06Z</time></trkpt><trkpt lat="49.49072847289935" lon="3.008736530497353"><ele>71.2</ele><time>2026-04-07T08:42:07Z</time></trkpt><trkpt lat="49.49062932102891" lon="3.0086469632139075"><ele>71.0</ele><time>2026-04-07T08:42:08Z</time></trkpt><trkpt lat="49.490532127572465" lon="3.008564974665436"><ele>71.0</ele><time>2026-04-07T08:42:09Z</time></trkpt><trkpt lat="49.4904347010274" lon="3.008474412689894"><ele>71.0</ele><time>2026-04-07T08:42:10Z</time></trkpt><trkpt lat="49.49034691106044" lon="3.008399665257751"><ele>71.0</ele><time>2026-04-07T08:42:11Z</time></trkpt><trkpt lat="49.490258108306804" lon="3.0083334267997355"><ele>71.0</ele><time>2026-04-07T08:42:12Z</time></trkpt><trkpt lat="49.49016676839443" lon="3.0082937236703207"><ele>71.0</ele><time>2026-04-07T08:42:13Z</time></trkpt><trkpt lat="49.49007435085919" lon="3.0082670036416728"><ele>71.39999999999999</ele><time>2026-04-07T08:42:14Z</time></trkpt><trkpt lat="49.48998346657289" lon="3.0082491126158173"><ele>71.8</ele><time>2026-04-07T08:42:15Z</time></trkpt><trkpt lat="49.489895091554374" lon="3.008241197536096"><ele>72.19999999999999</ele><time>2026-04-07T08:42:16Z</time></trkpt><trkpt lat="49.4898047890398" lon="3.0082355020595095"><ele>72.6</ele><time>2026-04-07T08:42:17Z</time></trkpt><trkpt lat="49.48971071925543" lon="3.0082351565585355"><ele>73.0</ele><time>2026-04-07T08:42:18Z</time></trkpt><trkpt lat="49.48961841896456" lon="3.008232424373705"><ele>72.5</ele><time>2026-04-07T08:42:19Z</time></trkpt><trkpt lat="49.489532732767316" lon="3.0082337127400263"><ele>72.0</ele><time>2026-04-07T08:42:20Z</time></trkpt><trkpt lat="49.489465472119505" lon="3.0082302850219014"><ele>71.5</ele><time>2026-04-07T08:42:21Z</time></trkpt><trkpt lat="49.48940252259771" lon="3.0082259569953664"><ele>71.0</ele><time>2026-04-07T08:42:22Z</time></trkpt><trkpt lat="49.489309048324" lon="3.0082225713354043"><ele>70.5</ele><time>2026-04-07T08:42:24Z</time></trkpt><trkpt lat="49.4892360371121" lon="3.008216981306259"><ele>70.0</ele><time>2026-04-07T08:42:26Z</time></trkpt><trkpt lat="49.4891657316375" lon="3.0081962511295957"><ele>70.0</ele><time>2026-04-07T08:42:28Z</time></trkpt><trkpt lat="49.48909924408843" lon="3.008189478768905"><ele>70.0</ele><time>2026-04-07T08:42:29Z</time></trkpt><trkpt lat="49.48902391656669" lon="3.008175877887722"><ele>70.0</ele><time>2026-04-07T08:42:30Z</time></trkpt><trkpt lat="49.48892417100226" lon="3.008152124944958"><ele>70.0</ele><time>2026-04-07T08:42:31Z</time></trkpt><trkpt lat="49.4888191760937" lon="3.008122035164072"><ele>70.0</ele><time>2026-04-07T08:42:32Z</time></trkpt><trkpt lat="49.488717074784304" lon="3.008086401920528"><ele>68.8</ele><time>2026-04-07T08:42:33Z</time></trkpt><trkpt lat="49.48860918612863" lon="3.008060998047388"><ele>67.6</ele><time>2026-04-07T08:42:34Z</time></trkpt><trkpt lat="49.48849955088492" lon="3.008047161311332"><ele>66.4</ele><time>2026-04-07T08:42:35Z</time></trkpt><trkpt lat="49.4883986910653" lon="3.0080666521699095"><ele>65.2</ele><time>2026-04-07T08:42:36Z</time></trkpt><trkpt lat="49.48829621703975" lon="3.0081209171126346"><ele>64.0</ele><time>2026-04-07T08:42:37Z</time></trkpt><trkpt lat="49.48819253681421" lon="3.008187455187531"><ele>64.0</ele><time>2026-04-07T08:42:38Z</time></trkpt><trkpt lat="49.488076748129316" lon="3.0082679132283143"><ele>64.0</ele><time>2026-04-07T08:42:39Z</time></trkpt><trkpt lat="49.48794609080771" lon="3.0083437455797903"><ele>64.0</ele><time>2026-04-07T08:42:40Z</time></trkpt><trkpt lat="49.48781256389784" lon="3.008399541333283"><ele>64.0</ele><time>2026-04-07T08:42:41Z</time></trkpt><trkpt lat="49.48768624388193" lon="3.0084478716618155"><ele>63.6</ele><time>2026-04-07T08:42:42Z</time></trkpt><trkpt lat="49.487571473663024" lon="3.0084927713902294"><ele>63.2</ele><time>2026-04-07T08:42:43Z</time></trkpt><trkpt lat="49.48747002337327" lon="3.008531991090656"><ele>62.800000000000004</ele><time>2026-04-07T08:42:44Z</time></trkpt><trkpt lat="49.48737602626092" lon="3.0085581974508377"><ele>62.400000000000006</ele><time>2026-04-07T08:42:45Z</time></trkpt><trkpt lat="49.48729660986507" lon="3.008556231745619"><ele>62.0</ele><time>2026-04-07T08:42:46Z</time></trkpt><trkpt lat="49.48722640409243" lon="3.008515940995151"><ele>62.0</ele><time>2026-04-07T08:42:47Z</time></trkpt><trkpt lat="49.48716866707222" lon="3.008432439638319"><ele>62.0</ele><time>2026-04-07T08:42:48Z</time></trkpt><trkpt lat="49.48711254519905" lon="3.0083139471215863"><ele>62.0</ele><time>2026-04-07T08:42:49Z</time></trkpt><trkpt lat="49.48704789793335" lon="3.008179173739545"><ele>62.0</ele><time>2026-04-07T08:42:50Z</time></trkpt><trkpt lat="49.48697346963156" lon="3.00805102512103"><ele>62.0</ele><time>2026-04-07T08:42:51Z</time></trkpt><trkpt lat="49.486888861994615" lon="3.0079090797852164"><ele>61.75</ele><time>2026-04-07T08:42:52Z</time></trkpt><trkpt lat="49.48680663448815" lon="3.007757425814343"><ele>61.5</ele><time>2026-04-07T08:42:53Z</time></trkpt><trkpt lat="49.48671725002258" lon="3.007597654259633"><ele>61.25</ele><time>2026-04-07T08:42:54Z</time></trkpt><trkpt lat="49.48661297274357" lon="3.0074204612318822"><ele>61.0</ele><time>2026-04-07T08:42:55Z</time></trkpt><trkpt lat="49.48651022289336" lon="3.0072548037819913"><ele>61.0</ele><time>2026-04-07T08:42:56Z</time></trkpt><trkpt lat="49.48639928653729" lon="3.0071205096884035"><ele>61.0</ele><time>2026-04-07T08:42:57Z</time></trkpt><trkpt lat="49.4862848064309" lon="3.0069757248213094"><ele>61.0</ele><time>2026-04-07T08:42:58Z</time></trkpt><trkpt lat="49.48615779228169" lon="3.00682125291095"><ele>60.33333333333333</ele><time>2026-04-07T08:42:59Z</time></trkpt><trkpt lat="49.48602362335632" lon="3.0066645226141118"><ele>59.66666666666667</ele><time>2026-04-07T08:43:00Z</time></trkpt><trkpt lat="49.485902431400646" lon="3.0065172158379334"><ele>59.0</ele><time>2026-04-07T08:43:01Z</time></trkpt><trkpt lat="49.485778954272305" lon="3.00634700394027"><ele>59.0</ele><time>2026-04-07T08:43:02Z</time></trkpt><trkpt lat="49.485648786538334" lon="3.0061873764980676"><ele>59.0</ele><time>2026-04-07T08:43:03Z</time></trkpt><trkpt lat="49.48552114396837" lon="3.0060372509329203"><ele>59.0</ele><time>2026-04-07T08:43:04Z</time></trkpt><trkpt lat="49.48539541763775" lon="3.0059087391000747"><ele>58.25</ele><time>2026-04-07T08:43:05Z</time></trkpt><trkpt lat="49.48527559654862" lon="3.0057930423710837"><ele>57.5</ele><time>2026-04-07T08:43:06Z</time></trkpt><trkpt lat="49.485152004964455" lon="3.005691619792632"><ele>56.75</ele><time>2026-04-07T08:43:07Z</time></trkpt><trkpt lat="49.48503351753952" lon="3.0055897247143073"><ele>56.0</ele><time>2026-04-07T08:43:08Z</time></trkpt><trkpt lat="49.484918332700566" lon="3.0054934439540415"><ele>56.0</ele><time>2026-04-07T08:43:09Z</time></trkpt><trkpt lat="49.484805061070006" lon="3.0053981948420256"><ele>56.0</ele><time>2026-04-07T08:43:10Z</time></trkpt><trkpt lat="49.484698135299716" lon="3.005301746216286"><ele>56.0</ele><time>2026-04-07T08:43:11Z</time></trkpt><trkpt lat="49.48458820063326" lon="3.0051988538536687"><ele>56.0</ele><time>2026-04-07T08:43:12Z</time></trkpt><trkpt lat="49.48447547927733" lon="3.0050847497067505"><ele>55.5</ele><time>2026-04-07T08:43:13Z</time></trkpt><trkpt lat="49.4843728884348" lon="3.0049589356316857"><ele>55.0</ele><time>2026-04-07T08:43:14Z</time></trkpt><trkpt lat="49.48427028999897" lon="3.0048254617334265"><ele>54.5</ele><time>2026-04-07T08:43:15Z</time></trkpt><trkpt lat="49.484167414876424" lon="3.004685750469873"><ele>54.0</ele><time>2026-04-07T08:43:16Z</time></trkpt><trkpt lat="49.484066913255326" lon="3.0045420719707567"><ele>54.0</ele><time>2026-04-07T08:43:17Z</time></trkpt><trkpt lat="49.4839747769118" lon="3.0043922565475247"><ele>54.0</ele><time>2026-04-07T08:43:18Z</time></trkpt><trkpt lat="49.483881449937265" lon="3.0042283838083557"><ele>54.0</ele><time>2026-04-07T08:43:19Z</time></trkpt><trkpt lat="49.48377773955042" lon="3.0040408393478266"><ele>54.0</ele><time>2026-04-07T08:43:20Z</time></trkpt><trkpt lat="49.48366576304188" lon="3.003850780825733"><ele>54.33333333333333</ele><time>2026-04-07T08:43:21Z</time></trkpt><trkpt lat="49.48355836800566" lon="3.003646097809021"><ele>54.666666666666664</ele><time>2026-04-07T08:43:22Z</time></trkpt><trkpt lat="49.483449788440325" lon="3.00345501351038"><ele>55.0</ele><time>2026-04-07T08:43:23Z</time></trkpt><trkpt lat="49.48334095610548" lon="3.00328839476368"><ele>55.0</ele><time>2026-04-07T08:43:24Z</time></trkpt><trkpt lat="49.48323144845961" lon="3.0031384018832235"><ele>55.0</ele><time>2026-04-07T08:43:25Z</time></trkpt><trkpt lat="49.48310614071561" lon="3.002979742197377"><ele>55.0</ele><time>2026-04-07T08:43:26Z</time></trkpt><trkpt lat="49.48297659086756" lon="3.002827876862845"><ele>56.0</ele><time>2026-04-07T08:43:27Z</time></trkpt><trkpt lat="49.48283821704073" lon="3.0026626656933777"><ele>57.0</ele><time>2026-04-07T08:43:28Z</time></trkpt><trkpt lat="49.48270461705381" lon="3.002522544236408"><ele>58.0</ele><time>2026-04-07T08:43:29Z</time></trkpt><trkpt lat="49.48257324181085" lon="3.002407614731227"><ele>58.0</ele><time>2026-04-07T08:43:30Z</time></trkpt><trkpt lat="49.48243559655401" lon="3.0023131875017666"><ele>58.0</ele><time>2026-04-07T08:43:31Z</time></trkpt><trkpt lat="49.482282122097445" lon="3.002222343387191"><ele>58.0</ele><time>2026-04-07T08:43:32Z</time></trkpt><trkpt lat="49.482097854335954" lon="3.002095862184411"><ele>58.33333333333333</ele><time>2026-04-07T08:43:33Z</time></trkpt><trkpt lat="49.48191577186374" lon="3.0019244971743513"><ele>58.66666666666667</ele><time>2026-04-07T08:43:34Z</time></trkpt><trkpt lat="49.48173859758199" lon="3.001752249362005"><ele>59.0</ele><time>2026-04-07T08:43:35Z</time></trkpt><trkpt lat="49.481697699724954" lon="3.001832615514133"><ele>59.0</ele><time>2026-04-07T08:43:36Z</time></trkpt><trkpt lat="49.48160045765551" lon="3.0017361887430134"><ele>59.00000000000001</ele><time>2026-04-07T08:43:37Z</time></trkpt><trkpt lat="49.481509250525384" lon="3.001649198340581"><ele>59.00000000000001</ele><time>2026-04-07T08:43:38Z</time></trkpt><trkpt lat="49.48141881906974" lon="3.0015839708214997"><ele>59.0</ele><time>2026-04-07T08:43:39Z</time></trkpt><trkpt lat="49.48135309352715" lon="3.001488550358982"><ele>59.0</ele><time>2026-04-07T08:43:40Z</time></trkpt><trkpt lat="49.481282879598005" lon="3.0014040980059065"><ele>59.6</ele><time>2026-04-07T08:43:41Z</time></trkpt><trkpt lat="49.481214121844076" lon="3.0013277080466136"><ele>60.2</ele><time>2026-04-07T08:43:42Z</time></trkpt><trkpt lat="49.48114331902419" lon="3.0012463519868913"><ele>60.800000000000004</ele><time>2026-04-07T08:43:43Z</time></trkpt><trkpt lat="49.481070493173405" lon="3.0011647331602793"><ele>61.400000000000006</ele><time>2026-04-07T08:43:44Z</time></trkpt><trkpt lat="49.48099389228549" lon="3.0010750802391035"><ele>62.0</ele><time>2026-04-07T08:43:45Z</time></trkpt><trkpt lat="49.480911084095716" lon="3.000980110888068"><ele>62.0</ele><time>2026-04-07T08:43:46Z</time></trkpt><trkpt lat="49.48083040570685" lon="3.000884402605263"><ele>62.0</ele><time>2026-04-07T08:43:47Z</time></trkpt><trkpt lat="49.48074728028739" lon="3.0007807029517592"><ele>62.0</ele><time>2026-04-07T08:43:48Z</time></trkpt><trkpt lat="49.48066090321022" lon="3.0006804342985127"><ele>62.0</ele><time>2026-04-07T08:43:49Z</time></trkpt><trkpt lat="49.48059470561438" lon="3.0005982915057823"><ele>62.0</ele><time>2026-04-07T08:43:50Z</time></trkpt><trkpt lat="49.48053862545583" lon="3.000535669160387"><ele>62.0</ele><time>2026-04-07T08:43:51Z</time></trkpt><trkpt lat="49.48047653532995" lon="3.000460689402008"><ele>62.0</ele><time>2026-04-07T08:43:53Z</time></trkpt><trkpt lat="49.4804364993878" lon="3.0003736852696665"><ele>62.0</ele><time>2026-04-07T08:43:55Z</time></trkpt><trkpt lat="49.480328803051016" lon="3.000241575987409"><ele>62.0</ele><time>2026-04-07T08:43:57Z</time></trkpt><trkpt lat="49.48022175010173" lon="3.00016667897094"><ele>62.0</ele><time>2026-04-07T08:43:58Z</time></trkpt><trkpt lat="49.480110148027585" lon="3.0001092639090117"><ele>63.0</ele><time>2026-04-07T08:43:59Z</time></trkpt><trkpt lat="49.47997176058393" lon="3.000041406517175"><ele>64.0</ele><time>2026-04-07T08:44:00Z</time></trkpt><trkpt lat="49.47981836824574" lon="2.9999679097089094"><ele>65.0</ele><time>2026-04-07T08:44:01Z</time></trkpt><trkpt lat="49.479640997910835" lon="2.9998930643326704"><ele>65.33333333333334</ele><time>2026-04-07T08:44:02Z</time></trkpt><trkpt lat="49.479452136026794" lon="2.999808508995672"><ele>65.66666666666667</ele><time>2026-04-07T08:44:03Z</time></trkpt><trkpt lat="49.47926872768528" lon="2.9997146173939786"><ele>66.0</ele><time>2026-04-07T08:44:04Z</time></trkpt><trkpt lat="49.47908541605851" lon="2.999624977462839"><ele>66.0</ele><time>2026-04-07T08:44:05Z</time></trkpt><trkpt lat="49.47891857088472" lon="2.9995487021870764"><ele>66.0</ele><time>2026-04-07T08:44:06Z</time></trkpt><trkpt lat="49.47875887434989" lon="2.9994646349469862"><ele>66.0</ele><time>2026-04-07T08:44:07Z</time></trkpt><trkpt lat="49.47861819918224" lon="2.9993945687340893"><ele>66.5</ele><time>2026-04-07T08:44:08Z</time></trkpt><trkpt lat="49.478482340892" lon="2.9993308601829454"><ele>67.0</ele><time>2026-04-07T08:44:09Z</time></trkpt><trkpt lat="49.47834402669459" lon="2.9992682731648377"><ele>67.5</ele><time>2026-04-07T08:44:10Z</time></trkpt><trkpt lat="49.478215610509494" lon="2.9991925735652987"><ele>68.0</ele><time>2026-04-07T08:44:11Z</time></trkpt><trkpt lat="49.47809389109647" lon="2.9991318363370776"><ele>68.0</ele><time>2026-04-07T08:44:12Z</time></trkpt><trkpt lat="49.477980855943784" lon="2.9990814621495008"><ele>68.0</ele><time>2026-04-07T08:44:13Z</time></trkpt><trkpt lat="49.47788340423474" lon="2.999021057618987"><ele>68.0</ele><time>2026-04-07T08:44:14Z</time></trkpt><trkpt lat="49.47779698519219" lon="2.998945499339717"><ele>68.0</ele><time>2026-04-07T08:44:15Z</time></trkpt><trkpt lat="49.47772829241141" lon="2.9988547249502666"><ele>68.0</ele><time>2026-04-07T08:44:16Z</time></trkpt><trkpt lat="49.477690502761895" lon="2.998765479587442"><ele>68.4</ele><time>2026-04-07T08:44:17Z</time></trkpt><trkpt lat="49.477684995174606" lon="2.998637199086976"><ele>68.8</ele><time>2026-04-07T08:44:19Z</time></trkpt><trkpt lat="49.47758901542168" lon="2.998755550522594"><ele>69.2</ele><time>2026-04-07T08:44:21Z</time></trkpt><trkpt lat="49.47751894731547" lon="2.9988189028615975"><ele>69.6</ele><time>2026-04-07T08:44:23Z</time></trkpt><trkpt lat="49.4774054453238" lon="2.9989141101187267"><ele>70.0</ele><time>2026-04-07T08:44:25Z</time></trkpt><trkpt lat="49.47733345569995" lon="2.999035033089551"><ele>70.0</ele><time>2026-04-07T08:44:26Z</time></trkpt><trkpt lat="49.47727717707282" lon="2.9991295659152337"><ele>70.0</ele><time>2026-04-07T08:44:27Z</time></trkpt><trkpt lat="49.47719211094921" lon="2.9992780530928145"><ele>70.0</ele><time>2026-04-07T08:44:29Z</time></trkpt><trkpt lat="49.47711395181846" lon="2.9994136150518025"><ele>70.0</ele><time>2026-04-07T08:44:31Z</time></trkpt><trkpt lat="49.47706558544483" lon="2.999481202244244"><ele>70.0</ele><time>2026-04-07T08:44:32Z</time></trkpt><trkpt lat="49.47701500853944" lon="2.999551911176936"><ele>72.85714285714286</ele><time>2026-04-07T08:44:33Z</time></trkpt><trkpt lat="49.47696285739865" lon="2.999615824037627"><ele>75.71428571428572</ele><time>2026-04-07T08:44:34Z</time></trkpt><trkpt lat="49.476902060654346" lon="2.9996735236848564"><ele>78.57142857142857</ele><time>2026-04-07T08:44:35Z</time></trkpt><trkpt lat="49.47683533687785" lon="2.9997114855185307"><ele>81.42857142857143</ele><time>2026-04-07T08:44:36Z</time></trkpt><trkpt lat="49.476757638289136" lon="2.999759634781741"><ele>84.28571428571429</ele><time>2026-04-07T08:44:37Z</time></trkpt><trkpt lat="49.47668473874298" lon="2.9997985780057554"><ele>87.14285714285714</ele><time>2026-04-07T08:44:38Z</time></trkpt><trkpt lat="49.47662027020175" lon="2.9998186531317823"><ele>90.0</ele><time>2026-04-07T08:44:39Z</time></trkpt><trkpt lat="49.47655853325919" lon="2.999797371002305"><ele>90.0</ele><time>2026-04-07T08:44:40Z</time></trkpt><trkpt lat="49.47643814156193" lon="2.999797371005681"><ele>90.0</ele><time>2026-04-07T08:44:42Z</time></trkpt><trkpt lat="49.476354741336" lon="2.999797371010355"><ele>90.0</ele><time>2026-04-07T08:44:43Z</time></trkpt><trkpt lat="49.47626767669201" lon="2.9997973710214856"><ele>90.0</ele><time>2026-04-07T08:44:44Z</time></trkpt><trkpt lat="49.47617855572639" lon="2.9998609557945572"><ele>90.0</ele><time>2026-04-07T08:44:45Z</time></trkpt><trkpt lat="49.47610776314529" lon="2.9998615435832217"><ele>90.6</ele><time>2026-04-07T08:44:46Z</time></trkpt><trkpt lat="49.47601708376416" lon="2.9998725807727604"><ele>91.2</ele><time>2026-04-07T08:44:47Z</time></trkpt><trkpt lat="49.47588670753145" lon="2.9998755971502833"><ele>91.80000000000001</ele><time>2026-04-07T08:44:48Z</time></trkpt><trkpt lat="49.475815255689305" lon="2.9999154517029787"><ele>92.4</ele><time>2026-04-07T08:44:49Z</time></trkpt><trkpt lat="49.4757028242302" lon="3.000019242590052"><ele>93.0</ele><time>2026-04-07T08:44:51Z</time></trkpt><trkpt lat="49.47564570846702" lon="3.0000738019387607"><ele>93.0</ele><time>2026-04-07T08:44:52Z</time></trkpt><trkpt lat="49.47555811821081" lon="3.00017060567953"><ele>93.0</ele><time>2026-04-07T08:44:54Z</time></trkpt><trkpt lat="49.475457261227334" lon="3.000257707493803"><ele>93.0</ele><time>2026-04-07T08:44:56Z</time></trkpt><trkpt lat="49.47536970447483" lon="3.0003157536300864"><ele>93.0</ele><time>2026-04-07T08:44:58Z</time></trkpt><trkpt lat="49.4752828115606" lon="3.0004572803513447"><ele>93.0</ele><time>2026-04-07T08:45:00Z</time></trkpt><trkpt lat="49.475225120031496" lon="3.000564884875108"><ele>93.2</ele><time>2026-04-07T08:45:01Z</time></trkpt><trkpt lat="49.47518959307572" lon="3.000655838650005"><ele>93.4</ele><time>2026-04-07T08:45:02Z</time></trkpt><trkpt lat="49.47510501433508" lon="3.0007642332130677"><ele>93.60000000000001</ele><time>2026-04-07T08:45:04Z</time></trkpt><trkpt lat="49.4750480762987" lon="3.0008260008694823"><ele>93.80000000000001</ele><time>2026-04-07T08:45:05Z</time></trkpt><trkpt lat="49.474950761388534" lon="3.0008429748647854"><ele>94.0</ele><time>2026-04-07T08:45:07Z</time></trkpt><trkpt lat="49.4748535209897" lon="3.0008952113618657"><ele>96.66666666666666</ele><time>2026-04-07T08:45:09Z</time></trkpt><trkpt lat="49.47475270508445" lon="3.0009908891136603"><ele>99.33333333333333</ele><time>2026-04-07T08:45:11Z</time></trkpt><trkpt lat="49.47467007777132" lon="3.001036145754337"><ele>102.0</ele><time>2026-04-07T08:45:13Z</time></trkpt><trkpt lat="49.47460471178671" lon="3.0010567522982847"><ele>104.66666666666666</ele><time>2026-04-07T08:45:14Z</time></trkpt><trkpt lat="49.47454761334159" lon="3.001097672804087"><ele>107.33333333333333</ele><time>2026-04-07T08:45:15Z</time></trkpt><trkpt lat="49.474483972829475" lon="3.0011305550311547"><ele>110.0</ele><time>2026-04-07T08:45:16Z</time></trkpt><trkpt lat="49.47441719728773" lon="3.00115516376617"><ele>110.4</ele><time>2026-04-07T08:45:17Z</time></trkpt><trkpt lat="49.47433940788628" lon="3.001180110023731"><ele>110.8</ele><time>2026-04-07T08:45:18Z</time></trkpt><trkpt lat="49.47427271229395" lon="3.001176409606697"><ele>111.19999999999999</ele><time>2026-04-07T08:45:19Z</time></trkpt><trkpt lat="49.47418702924254" lon="3.00117106279086"><ele>111.6</ele><time>2026-04-07T08:45:20Z</time></trkpt><trkpt lat="49.474110121476905" lon="3.0011953210406572"><ele>112.0</ele><time>2026-04-07T08:45:21Z</time></trkpt><trkpt lat="49.473917782557876" lon="3.0011844072933935"><ele>112.0</ele><time>2026-04-07T08:45:23Z</time></trkpt><trkpt lat="49.473826518674095" lon="3.0012075596533307"><ele>111.99999999999999</ele><time>2026-04-07T08:45:24Z</time></trkpt><trkpt lat="49.473738982480434" lon="3.001252518379524"><ele>111.99999999999999</ele><time>2026-04-07T08:45:25Z</time></trkpt><trkpt lat="49.47364864381577" lon="3.0013208824038156"><ele>112.0</ele><time>2026-04-07T08:45:26Z</time></trkpt><trkpt lat="49.47358356448762" lon="3.0013600342749958"><ele>112.0</ele><time>2026-04-07T08:45:27Z</time></trkpt><trkpt lat="49.47345094697786" lon="3.001393117876219"><ele>113.83333333333334</ele><time>2026-04-07T08:45:29Z</time></trkpt><trkpt lat="49.47338746857503" lon="3.0013841621622537"><ele>115.66666666666667</ele><time>2026-04-07T08:45:30Z</time></trkpt><trkpt lat="49.4733101351274" lon="3.001417776415164"><ele>117.5</ele><time>2026-04-07T08:45:31Z</time></trkpt><trkpt lat="49.47323657425497" lon="3.0014559703079136"><ele>119.33333333333334</ele><time>2026-04-07T08:45:32Z</time></trkpt><trkpt lat="49.473159915150966" lon="3.001504369441437"><ele>121.16666666666667</ele><time>2026-04-07T08:45:33Z</time></trkpt><trkpt lat="49.473081942443216" lon="3.001554522873381"><ele>123.0</ele><time>2026-04-07T08:45:34Z</time></trkpt><trkpt lat="49.47299737801464" lon="3.0016260312730147"><ele>124.5</ele><time>2026-04-07T08:45:35Z</time></trkpt><trkpt lat="49.47287782240639" lon="3.001687102360998"><ele>126.0</ele><time>2026-04-07T08:45:36Z</time></trkpt><trkpt lat="49.47274954693551" lon="3.0017341597245033"><ele>127.5</ele><time>2026-04-07T08:45:37Z</time></trkpt><trkpt lat="49.472633054321555" lon="3.0017687998670053"><ele>129.0</ele><time>2026-04-07T08:45:38Z</time></trkpt><trkpt lat="49.47255228997493" lon="3.001798282640571"><ele>129.0</ele><time>2026-04-07T08:45:39Z</time></trkpt><trkpt lat="49.47249299828694" lon="3.0018491567156818"><ele>129.0</ele><time>2026-04-07T08:45:40Z</time></trkpt><trkpt lat="49.472114536114695" lon="3.0017114000462297"><ele>130.0</ele><time>2026-04-07T08:45:41Z</time></trkpt><trkpt lat="49.47190033259932" lon="3.001659872722351"><ele>131.0</ele><time>2026-04-07T08:45:42Z</time></trkpt><trkpt lat="49.471711458158865" lon="3.001620521147124"><ele>132.0</ele><time>2026-04-07T08:45:43Z</time></trkpt><trkpt lat="49.47154985062312" lon="3.001603411684551"><ele>132.0</ele><time>2026-04-07T08:45:44Z</time></trkpt><trkpt lat="49.47139791330354" lon="3.001582022013119"><ele>132.0</ele><time>2026-04-07T08:45:45Z</time></trkpt><trkpt lat="49.47126313930667" lon="3.0015804041117593"><ele>132.0</ele><time>2026-04-07T08:45:46Z</time></trkpt><trkpt lat="49.47114611833366" lon="3.0015567055687336"><ele>132.0</ele><time>2026-04-07T08:45:47Z</time></trkpt><trkpt lat="49.47102672566242" lon="3.001544836223009"><ele>131.0</ele><time>2026-04-07T08:45:48Z</time></trkpt><trkpt lat="49.47088440459669" lon="3.0015368649101273"><ele>130.0</ele><time>2026-04-07T08:45:49Z</time></trkpt><trkpt lat="49.47076345644117" lon="3.001513269913486"><ele>129.0</ele><time>2026-04-07T08:45:50Z</time></trkpt><trkpt lat="49.4706602854389" lon="3.001492414474879"><ele>128.0</ele><time>2026-04-07T08:45:51Z</time></trkpt><trkpt lat="49.47056191907657" lon="3.0014613689071923"><ele>128.0</ele><time>2026-04-07T08:45:52Z</time></trkpt><trkpt lat="49.470450647696325" lon="3.0014356557379953"><ele>128.0</ele><time>2026-04-07T08:45:53Z</time></trkpt><trkpt lat="49.47034436166649" lon="3.0014368874842114"><ele>128.0</ele><time>2026-04-07T08:45:54Z</time></trkpt><trkpt lat="49.47024453190657" lon="3.0014356115069725"><ele>128.0</ele><time>2026-04-07T08:45:55Z</time></trkpt><trkpt lat="49.470160000173635" lon="3.0014258954170363"><ele>128.0</ele><time>2026-04-07T08:45:56Z</time></trkpt><trkpt lat="49.470075649941684" lon="3.001414172582243"><ele>129.4</ele><time>2026-04-07T08:45:57Z</time></trkpt><trkpt lat="49.46997457256696" lon="3.0013882333590667"><ele>130.8</ele><time>2026-04-07T08:45:58Z</time></trkpt><trkpt lat="49.46987697177671" lon="3.0013516540375296"><ele>132.2</ele><time>2026-04-07T08:45:59Z</time></trkpt><trkpt lat="49.46978966915369" lon="3.0013425700838448"><ele>133.6</ele><time>2026-04-07T08:46:00Z</time></trkpt><trkpt lat="49.469696883029314" lon="3.001340857327047"><ele>135.0</ele><time>2026-04-07T08:46:01Z</time></trkpt><trkpt lat="49.4695701304231" lon="3.001344722874907"><ele>135.75</ele><time>2026-04-07T08:46:02Z</time></trkpt><trkpt lat="49.46941586831211" lon="3.0013425680449384"><ele>136.5</ele><time>2026-04-07T08:46:03Z</time></trkpt><trkpt lat="49.4693130854317" lon="3.001351677914416"><ele>137.25</ele><time>2026-04-07T08:46:04Z</time></trkpt><trkpt lat="49.46923534666761" lon="3.0013857530717245"><ele>138.0</ele><time>2026-04-07T08:46:05Z</time></trkpt><trkpt lat="49.46910009303705" lon="3.0013654713917055"><ele>138.0</ele><time>2026-04-07T08:46:06Z</time></trkpt><trkpt lat="49.46900079051929" lon="3.001346432004722"><ele>138.0</ele><time>2026-04-07T08:46:07Z</time></trkpt><trkpt lat="49.46892380556467" lon="3.00134272339924"><ele>138.0</ele><time>2026-04-07T08:46:08Z</time></trkpt><trkpt lat="49.46887465796531" lon="3.0012591080338895"><ele>138.0</ele><time>2026-04-07T08:46:11Z</time></trkpt><trkpt lat="49.46888221275529" lon="3.001108220571312"><ele>138.0</ele><time>2026-04-07T08:46:13Z</time></trkpt><trkpt lat="49.46886632194407" lon="3.0009786632115847"><ele>138.0</ele><time>2026-04-07T08:46:14Z</time></trkpt><trkpt lat="49.46885101245716" lon="3.000830256629509"><ele>138.4</ele><time>2026-04-07T08:46:15Z</time></trkpt><trkpt lat="49.46882493703481" lon="3.0006502381609996"><ele>138.8</ele><time>2026-04-07T08:46:16Z</time></trkpt><trkpt lat="49.46880142450611" lon="3.0004761630772907"><ele>139.2</ele><time>2026-04-07T08:46:17Z</time></trkpt><trkpt lat="49.46878388193858" lon="3.000333019057462"><ele>139.6</ele><time>2026-04-07T08:46:18Z</time></trkpt><trkpt lat="49.468756196459005" lon="3.00021936565985"><ele>140.0</ele><time>2026-04-07T08:46:19Z</time></trkpt><trkpt lat="49.46872302602023" lon="3.0000997233215876"><ele>140.75</ele><time>2026-04-07T08:46:20Z</time></trkpt><trkpt lat="49.46868690602034" lon="2.999933055806133"><ele>141.5</ele><time>2026-04-07T08:46:21Z</time></trkpt><trkpt lat="49.46863897835596" lon="2.999699812442957"><ele>142.25</ele><time>2026-04-07T08:46:22Z</time></trkpt><trkpt lat="49.46858428448843" lon="2.9994984000760696"><ele>143.0</ele><time>2026-04-07T08:46:23Z</time></trkpt><trkpt lat="49.4685192727765" lon="2.999332618313912"><ele>142.66666666666666</ele><time>2026-04-07T08:46:24Z</time></trkpt><trkpt lat="49.46845098502677" lon="2.999113867171242"><ele>142.33333333333334</ele><time>2026-04-07T08:46:25Z</time></trkpt><trkpt lat="49.46838659815297" lon="2.998930963127567"><ele>142.0</ele><time>2026-04-07T08:46:26Z</time></trkpt><trkpt lat="49.46833387229495" lon="2.9986437853748518"><ele>142.0</ele><time>2026-04-07T08:46:27Z</time></trkpt><trkpt lat="49.4682851334495" lon="2.9984709063662303"><ele>142.0</ele><time>2026-04-07T08:46:28Z</time></trkpt><trkpt lat="49.468237184970484" lon="2.998308831138754"><ele>142.0</ele><time>2026-04-07T08:46:29Z</time></trkpt><trkpt lat="49.46819707285628" lon="2.9981606540336787"><ele>142.0</ele><time>2026-04-07T08:46:30Z</time></trkpt><trkpt lat="49.46816649072255" lon="2.998029431263027"><ele>142.0</ele><time>2026-04-07T08:46:31Z</time></trkpt><trkpt lat="49.468136448776406" lon="2.9979068313774158"><ele>142.16666666666669</ele><time>2026-04-07T08:46:32Z</time></trkpt><trkpt lat="49.46810916926271" lon="2.9977971067266673"><ele>142.33333333333334</ele><time>2026-04-07T08:46:33Z</time></trkpt><trkpt lat="49.468088475114165" lon="2.997705465903156"><ele>142.5</ele><time>2026-04-07T08:46:34Z</time></trkpt><trkpt lat="49.4680591277386" lon="2.9976033782299565"><ele>142.66666666666666</ele><time>2026-04-07T08:46:35Z</time></trkpt><trkpt lat="49.46801617684875" lon="2.9974356554662966"><ele>142.83333333333331</ele><time>2026-04-07T08:46:37Z</time></trkpt><trkpt lat="49.46796503165095" lon="2.9972854942764773"><ele>143.0</ele><time>2026-04-07T08:46:39Z</time></trkpt><trkpt lat="49.46790970514491" lon="2.9972183834082387"><ele>143.0</ele><time>2026-04-07T08:46:41Z</time></trkpt><trkpt lat="49.46783419072236" lon="2.997248670807032"><ele>143.0</ele><time>2026-04-07T08:46:52Z</time></trkpt><trkpt lat="49.46775085941616" lon="2.997273195053742"><ele>143.0</ele><time>2026-04-07T08:46:54Z</time></trkpt><trkpt lat="49.46770026260251" lon="2.9972043395396395"><ele>143.0</ele><time>2026-04-07T08:46:55Z</time></trkpt><trkpt lat="49.46760686280752" lon="2.997064668380684"><ele>143.0</ele><time>2026-04-07T08:46:56Z</time></trkpt><trkpt lat="49.46752640965363" lon="2.9968737319895014"><ele>143.0</ele><time>2026-04-07T08:46:57Z</time></trkpt><trkpt lat="49.46738099577758" lon="2.9966758633518147"><ele>143.0</ele><time>2026-04-07T08:46:58Z</time></trkpt><trkpt lat="49.46727902836567" lon="2.9965414542962736"><ele>143.0</ele><time>2026-04-07T08:46:59Z</time></trkpt><trkpt lat="49.467196147262676" lon="2.9964349133956665"><ele>143.0</ele><time>2026-04-07T08:47:00Z</time></trkpt><trkpt lat="49.46709720371558" lon="2.996263452106487"><ele>142.25</ele><time>2026-04-07T08:47:01Z</time></trkpt><trkpt lat="49.467043607129405" lon="2.9960812454724"><ele>141.5</ele><time>2026-04-07T08:47:02Z</time></trkpt><trkpt lat="49.466953821751396" lon="2.995970733832285"><ele>140.75</ele><time>2026-04-07T08:47:03Z</time></trkpt><trkpt lat="49.46687233050213" lon="2.99586135320955"><ele>140.0</ele><time>2026-04-07T08:47:04Z</time></trkpt><trkpt lat="49.46674707752237" lon="2.9957367674296513"><ele>140.0</ele><time>2026-04-07T08:47:05Z</time></trkpt><trkpt lat="49.46663987501207" lon="2.9956221351050325"><ele>140.0</ele><time>2026-04-07T08:47:06Z</time></trkpt><trkpt lat="49.46653300500908" lon="2.995463009886099"><ele>140.0</ele><time>2026-04-07T08:47:07Z</time></trkpt><trkpt lat="49.4664363277478" lon="2.995296768628144"><ele>140.0</ele><time>2026-04-07T08:47:08Z</time></trkpt><trkpt lat="49.46630820772089" lon="2.9950827918205936"><ele>141.0</ele><time>2026-04-07T08:47:09Z</time></trkpt><trkpt lat="49.46618810375637" lon="2.9948579684159276"><ele>142.0</ele><time>2026-04-07T08:47:10Z</time></trkpt><trkpt lat="49.466096540622054" lon="2.9946597362835403"><ele>143.0</ele><time>2026-04-07T08:47:11Z</time></trkpt><trkpt lat="49.46600734084546" lon="2.9944725290909058"><ele>143.0</ele><time>2026-04-07T08:47:12Z</time></trkpt><trkpt lat="49.46592337415944" lon="2.994316671841979"><ele>143.0</ele><time>2026-04-07T08:47:13Z</time></trkpt><trkpt lat="49.465854428669694" lon="2.9942124314182204"><ele>143.0</ele><time>2026-04-07T08:47:14Z</time></trkpt><trkpt lat="49.46576567402567" lon="2.9941343907260287"><ele>143.0</ele><time>2026-04-07T08:47:15Z</time></trkpt><trkpt lat="49.46566183518389" lon="2.994049205749847"><ele>143.0</ele><time>2026-04-07T08:47:16Z</time></trkpt><trkpt lat="49.465590961502734" lon="2.9939174315024792"><ele>142.20000000000002</ele><time>2026-04-07T08:47:17Z</time></trkpt><trkpt lat="49.465531797806285" lon="2.993804457842381"><ele>141.4</ele><time>2026-04-07T08:47:18Z</time></trkpt><trkpt lat="49.465505821562054" lon="2.9937111203159854"><ele>140.60000000000002</ele><time>2026-04-07T08:47:19Z</time></trkpt><trkpt lat="49.46544089740634" lon="2.9935487073654845"><ele>139.8</ele><time>2026-04-07T08:47:21Z</time></trkpt><trkpt lat="49.465357008873944" lon="2.9934101050475026"><ele>139.0</ele><time>2026-04-07T08:47:22Z</time></trkpt><trkpt lat="49.46525836020285" lon="2.9932100133430803"><ele>139.0</ele><time>2026-04-07T08:47:23Z</time></trkpt><trkpt lat="49.46516840099491" lon="2.993034167862529"><ele>139.0</ele><time>2026-04-07T08:47:24Z</time></trkpt><trkpt lat="49.4650872251971" lon="2.9928964048148594"><ele>139.0</ele><time>2026-04-07T08:47:25Z</time></trkpt><trkpt lat="49.46499435552737" lon="2.9927666246048266"><ele>139.0</ele><time>2026-04-07T08:47:26Z</time></trkpt><trkpt lat="49.46490855946612" lon="2.992605044943217"><ele>139.0</ele><time>2026-04-07T08:47:27Z</time></trkpt><trkpt lat="49.46483413556239" lon="2.9924738705581038"><ele>139.0</ele><time>2026-04-07T08:47:28Z</time></trkpt><trkpt lat="49.46475681803879" lon="2.9923611930106024"><ele>139.0</ele><time>2026-04-07T08:47:29Z</time></trkpt><trkpt lat="49.46468019719125" lon="2.9922643939403675"><ele>139.0</ele><time>2026-04-07T08:47:30Z</time></trkpt><trkpt lat="49.46460732008262" lon="2.992197956278964"><ele>139.0</ele><time>2026-04-07T08:47:31Z</time></trkpt><trkpt lat="49.46454170360887" lon="2.9921698146323985"><ele>138.6</ele><time>2026-04-07T08:47:32Z</time></trkpt><trkpt lat="49.46446831694498" lon="2.9921517367685593"><ele>138.2</ele><time>2026-04-07T08:47:33Z</time></trkpt><trkpt lat="49.464390680721706" lon="2.9921014875195575"><ele>137.79999999999998</ele><time>2026-04-07T08:47:34Z</time></trkpt><trkpt lat="49.464297984371846" lon="2.991995615357768"><ele>137.4</ele><time>2026-04-07T08:47:35Z</time></trkpt><trkpt lat="49.46419898633652" lon="2.9918730748355946"><ele>137.0</ele><time>2026-04-07T08:47:36Z</time></trkpt><trkpt lat="49.46413743941497" lon="2.9918058700426196"><ele>136.6</ele><time>2026-04-07T08:47:37Z</time></trkpt><trkpt lat="49.4640683489396" lon="2.9916303400384914"><ele>136.2</ele><time>2026-04-07T08:47:39Z</time></trkpt><trkpt lat="49.464023158940684" lon="2.9915088192585637"><ele>135.8</ele><time>2026-04-07T08:47:40Z</time></trkpt><trkpt lat="49.4639602405381" lon="2.991388730610632"><ele>135.4</ele><time>2026-04-07T08:47:41Z</time></trkpt><trkpt lat="49.4639506144667" lon="2.9912242061062635"><ele>135.0</ele><time>2026-04-07T08:47:42Z</time></trkpt><trkpt lat="49.46390383680625" lon="2.991117159089311"><ele>135.0</ele><time>2026-04-07T08:47:43Z</time></trkpt><trkpt lat="49.46384770853888" lon="2.9909806665940435"><ele>135.0</ele><time>2026-04-07T08:47:44Z</time></trkpt><trkpt lat="49.463758434059834" lon="2.9908970461325923"><ele>135.0</ele><time>2026-04-07T08:47:45Z</time></trkpt><trkpt lat="49.463667755067334" lon="2.9907692108866173"><ele>135.0</ele><time>2026-04-07T08:47:46Z</time></trkpt><trkpt lat="49.46362760500937" lon="2.9906639204275427"><ele>135.0</ele><time>2026-04-07T08:47:47Z</time></trkpt><trkpt lat="49.46356132186062" lon="2.9906068202791123"><ele>135.0</ele><time>2026-04-07T08:47:51Z</time></trkpt><trkpt lat="49.46346607295979" lon="2.990571442759455"><ele>135.0</ele><time>2026-04-07T08:47:53Z</time></trkpt><trkpt lat="49.46339571074074" lon="2.9904866493433953"><ele>135.0</ele><time>2026-04-07T08:47:54Z</time></trkpt><trkpt lat="49.463278424606266" lon="2.9904001595689795"><ele>135.0</ele><time>2026-04-07T08:47:55Z</time></trkpt><trkpt lat="49.4631939905234" lon="2.9903082895464896"><ele>135.0</ele><time>2026-04-07T08:47:56Z</time></trkpt><trkpt lat="49.46311089143444" lon="2.9901739208013454"><ele>135.0</ele><time>2026-04-07T08:47:57Z</time></trkpt><trkpt lat="49.46303559223743" lon="2.9901074822789275"><ele>135.0</ele><time>2026-04-07T08:47:58Z</time></trkpt><trkpt lat="49.46296026958541" lon="2.990043928016008"><ele>135.0</ele><time>2026-04-07T08:47:59Z</time></trkpt><trkpt lat="49.46290371500615" lon="2.9899560584633527"><ele>135.0</ele><time>2026-04-07T08:48:00Z</time></trkpt><trkpt lat="49.462877971556175" lon="2.989864579512897"><ele>135.0</ele><time>2026-04-07T08:48:01Z</time></trkpt><trkpt lat="49.462844357758364" lon="2.989770821699396"><ele>135.0</ele><time>2026-04-07T08:48:02Z</time></trkpt><trkpt lat="49.46280019744089" lon="2.989660473750627"><ele>135.0</ele><time>2026-04-07T08:48:03Z</time></trkpt><trkpt lat="49.46274781462032" lon="2.989546626867518"><ele>135.0</ele><time>2026-04-07T08:48:04Z</time></trkpt><trkpt lat="49.46272993573239" lon="2.9894354583486957"><ele>135.0</ele><time>2026-04-07T08:48:05Z</time></trkpt><trkpt lat="49.46271017555455" lon="2.9893420011814067"><ele>135.0</ele><time>2026-04-07T08:48:06Z</time></trkpt><trkpt lat="49.462674325644876" lon="2.9892513331976587"><ele>135.0</ele><time>2026-04-07T08:48:07Z</time></trkpt><trkpt lat="49.46263283818729" lon="2.9891674250749967"><ele>135.0</ele><time>2026-04-07T08:48:08Z</time></trkpt><trkpt lat="49.46257791422371" lon="2.9890945855680684"><ele>135.0</ele><time>2026-04-07T08:48:09Z</time></trkpt><trkpt lat="49.462515452553376" lon="2.9890333630075614"><ele>134.83333333333334</ele><time>2026-04-07T08:48:10Z</time></trkpt><trkpt lat="49.462448158427435" lon="2.988966386077746"><ele>134.66666666666666</ele><time>2026-04-07T08:48:10.999Z</time></trkpt><trkpt lat="49.46237182971249" lon="2.988900187456291"><ele>134.5</ele><time>2026-04-07T08:48:11.999Z</time></trkpt><trkpt lat="49.462277007239976" lon="2.9887832677721415"><ele>134.33333333333331</ele><time>2026-04-07T08:48:13.999Z</time></trkpt><trkpt lat="49.46222435339344" lon="2.9887147197181263"><ele>134.16666666666666</ele><time>2026-04-07T08:48:14.999Z</time></trkpt><trkpt lat="49.462168751913005" lon="2.9886242564706715"><ele>134.0</ele><time>2026-04-07T08:48:15.999Z</time></trkpt><trkpt lat="49.46211998509751" lon="2.988524917538294"><ele>133.6</ele><time>2026-04-07T08:48:16.999Z</time></trkpt><trkpt lat="49.46206675633332" lon="2.988334467079519"><ele>133.2</ele><time>2026-04-07T08:48:18.999Z</time></trkpt><trkpt lat="49.46205105760673" lon="2.988157231799308"><ele>132.79999999999998</ele><time>2026-04-07T08:48:19.999Z</time></trkpt><trkpt lat="49.462031529482324" lon="2.988011561510816"><ele>132.4</ele><time>2026-04-07T08:48:20.999Z</time></trkpt><trkpt lat="49.462025752488294" lon="2.987896921051873"><ele>132.0</ele><time>2026-04-07T08:48:21.999Z</time></trkpt><trkpt lat="49.46202923308181" lon="2.9877710376210485"><ele>132.0</ele><time>2026-04-07T08:48:22.999Z</time></trkpt><trkpt lat="49.462039311867144" lon="2.987648707216228"><ele>132.0</ele><time>2026-04-07T08:48:23.999Z</time></trkpt><trkpt lat="49.462053762835566" lon="2.9875270025733953"><ele>132.0</ele><time>2026-04-07T08:48:24.999Z</time></trkpt><trkpt lat="49.462085872919936" lon="2.987404216575933"><ele>132.0</ele><time>2026-04-07T08:48:25.999Z</time></trkpt><trkpt lat="49.46213712138775" lon="2.9872300099294686"><ele>132.0</ele><time>2026-04-07T08:48:26.999Z</time></trkpt><trkpt lat="49.462192970491" lon="2.9870379822233972"><ele>131.83333333333334</ele><time>2026-04-07T08:48:27.999Z</time></trkpt><trkpt lat="49.462245999149445" lon="2.9868513392889424"><ele>131.66666666666666</ele><time>2026-04-07T08:48:28.999Z</time></trkpt><trkpt lat="49.462252661981864" lon="2.9867458477618585"><ele>131.5</ele><time>2026-04-07T08:48:29.999Z</time></trkpt><trkpt lat="49.46227113459697" lon="2.986628119027068"><ele>131.33333333333331</ele><time>2026-04-07T08:48:30.999Z</time></trkpt><trkpt lat="49.462283033952396" lon="2.986520314708091"><ele>131.16666666666666</ele><time>2026-04-07T08:48:31.999Z</time></trkpt><trkpt lat="49.462304506628634" lon="2.98642100017468"><ele>131.0</ele><time>2026-04-07T08:48:32.999Z</time></trkpt><trkpt lat="49.46234023027286" lon="2.9863275881220495"><ele>130.66666666666666</ele><time>2026-04-07T08:48:33.999Z</time></trkpt><trkpt lat="49.46235921847382" lon="2.9862267445961006"><ele>130.33333333333331</ele><time>2026-04-07T08:48:34.999Z</time></trkpt><trkpt lat="49.462383879469776" lon="2.9861233448769857"><ele>130.0</ele><time>2026-04-07T08:48:36.999Z</time></trkpt><trkpt lat="49.462370290289925" lon="2.985994677198863"><ele>129.66666666666666</ele><time>2026-04-07T08:48:38.999Z</time></trkpt><trkpt lat="49.46234228876108" lon="2.985901774714957"><ele>129.33333333333334</ele><time>2026-04-07T08:48:39.999Z</time></trkpt><trkpt lat="49.46230694427788" lon="2.985775662684018"><ele>129.0</ele><time>2026-04-07T08:48:40.999Z</time></trkpt><trkpt lat="49.462270326286976" lon="2.985621982763368"><ele>128.4</ele><time>2026-04-07T08:48:41.999Z</time></trkpt><trkpt lat="49.46221891823522" lon="2.985411340878865"><ele>127.80000000000001</ele><time>2026-04-07T08:48:42.999Z</time></trkpt><trkpt lat="49.46217218312068" lon="2.9852267132012114"><ele>127.19999999999999</ele><time>2026-04-07T08:48:43.999Z</time></trkpt><trkpt lat="49.462130895347634" lon="2.9850980716517737"><ele>126.6</ele><time>2026-04-07T08:48:44.999Z</time></trkpt><trkpt lat="49.462102972320835" lon="2.984995697850552"><ele>126.0</ele><time>2026-04-07T08:48:45.999Z</time></trkpt><trkpt lat="49.46201019226696" lon="2.9849055577993924"><ele>125.66666666666667</ele><time>2026-04-07T08:48:47.999Z</time></trkpt><trkpt lat="49.46193632852987" lon="2.984862896689192"><ele>125.33333333333334</ele><time>2026-04-07T08:48:48.999Z</time></trkpt><trkpt lat="49.461879116100526" lon="2.984783185788708"><ele>125.0</ele><time>2026-04-07T08:48:49.999Z</time></trkpt><trkpt lat="49.46185689555474" lon="2.9846891341544723"><ele>124.66666666666667</ele><time>2026-04-07T08:48:50.999Z</time></trkpt><trkpt lat="49.46182694334509" lon="2.9845370617999873"><ele>124.33333333333334</ele><time>2026-04-07T08:48:51.999Z</time></trkpt><trkpt lat="49.461747826748365" lon="2.9844541690506725"><ele>124.0</ele><time>2026-04-07T08:48:52.999Z</time></trkpt><trkpt lat="49.46166812373748" lon="2.9843712395083326"><ele>124.0</ele><time>2026-04-07T08:48:53.999Z</time></trkpt><trkpt lat="49.4615737099175" lon="2.984319104160396"><ele>124.0</ele><time>2026-04-07T08:48:54.999Z</time></trkpt><trkpt lat="49.46164528404958" lon="2.983961533925811"><ele>124.0</ele><time>2026-04-07T08:48:55.999Z</time></trkpt><trkpt lat="49.46161356040647" lon="2.983863751247225"><ele>124.0</ele><time>2026-04-07T08:48:56.999Z</time></trkpt><trkpt lat="49.46157614572865" lon="2.9837746857759453"><ele>123.6</ele><time>2026-04-07T08:48:57.999Z</time></trkpt><trkpt lat="49.46151892646913" lon="2.9837065137833236"><ele>123.2</ele><time>2026-04-07T08:48:58.999Z</time></trkpt><trkpt lat="49.46144517754017" lon="2.9836235966070577"><ele>122.79999999999998</ele><time>2026-04-07T08:49:00.999Z</time></trkpt><trkpt lat="49.46143264488446" lon="2.983528276372722"><ele>122.39999999999999</ele><time>2026-04-07T08:49:01.999Z</time></trkpt><trkpt lat="49.46141848819118" lon="2.9833530663389687"><ele>122.0</ele><time>2026-04-07T08:49:03.999Z</time></trkpt><trkpt lat="49.46139307306421" lon="2.983184802528895"><ele>121.39999999999999</ele><time>2026-04-07T08:49:05.999Z</time></trkpt><trkpt lat="49.4613611022979" lon="2.983019897451084"><ele>120.79999999999998</ele><time>2026-04-07T08:49:07.999Z</time></trkpt><trkpt lat="49.46132313356152" lon="2.9829002447914754"><ele>120.2</ele><time>2026-04-07T08:49:09.999Z</time></trkpt><trkpt lat="49.461240028369026" lon="2.9828163510687395"><ele>119.6</ele><time>2026-04-07T08:49:11.999Z</time></trkpt><trkpt lat="49.46116152528307" lon="2.982750846476867"><ele>119.0</ele><time>2026-04-07T08:49:13.999Z</time></trkpt><trkpt lat="49.46108521629416" lon="2.982662089614139"><ele>118.80000000000001</ele><time>2026-04-07T08:49:15.999Z</time></trkpt><trkpt lat="49.46098368550409" lon="2.98262038187955"><ele>118.60000000000001</ele><time>2026-04-07T08:49:17.999Z</time></trkpt><trkpt lat="49.46088877257966" lon="2.982509734432997"><ele>118.4</ele><time>2026-04-07T08:49:19.999Z</time></trkpt><trkpt lat="49.46084289633546" lon="2.9824401917604395"><ele>118.2</ele><time>2026-04-07T08:49:20.999Z</time></trkpt><trkpt lat="49.460787180517656" lon="2.9823873017717446"><ele>118.0</ele><time>2026-04-07T08:49:21.999Z</time></trkpt><trkpt lat="49.460686454850716" lon="2.9822974067098946"><ele>116.80000000000001</ele><time>2026-04-07T08:49:23.999Z</time></trkpt><trkpt lat="49.4606366477411" lon="2.9822227005775437"><ele>115.60000000000001</ele><time>2026-04-07T08:49:24.999Z</time></trkpt><trkpt lat="49.460572643110574" lon="2.982117341052153"><ele>114.39999999999999</ele><time>2026-04-07T08:49:25.999Z</time></trkpt><trkpt lat="49.46052436744721" lon="2.982031673605815"><ele>113.19999999999999</ele><time>2026-04-07T08:49:26.999Z</time></trkpt><trkpt lat="49.46043025625924" lon="2.98187951547935"><ele>112.0</ele><time>2026-04-07T08:49:28.999Z</time></trkpt><trkpt lat="49.46038036968922" lon="2.9817842880655085"><ele>112.19999999999999</ele><time>2026-04-07T08:49:29.999Z</time></trkpt><trkpt lat="49.46030491890818" lon="2.981640848140122"><ele>112.39999999999999</ele><time>2026-04-07T08:49:30.999Z</time></trkpt><trkpt lat="49.46024021454314" lon="2.981484690164713"><ele>112.60000000000001</ele><time>2026-04-07T08:49:31.999Z</time></trkpt><trkpt lat="49.46018604139739" lon="2.9813653206688344"><ele>112.80000000000001</ele><time>2026-04-07T08:49:32.999Z</time></trkpt><trkpt lat="49.460109278225204" lon="2.9813248033730244"><ele>113.0</ele><time>2026-04-07T08:49:33.999Z</time></trkpt><trkpt lat="49.46004296842202" lon="2.9812675129706765"><ele>113.0</ele><time>2026-04-07T08:49:34.999Z</time></trkpt><trkpt lat="49.45995212383588" lon="2.981160648941441"><ele>113.00000000000001</ele><time>2026-04-07T08:49:36.999Z</time></trkpt><trkpt lat="49.45988222841925" lon="2.9810876049352784"><ele>113.00000000000001</ele><time>2026-04-07T08:49:38Z</time></trkpt><trkpt lat="49.45981892355581" lon="2.9809862533548572"><ele>113.0</ele><time>2026-04-07T08:49:39Z</time></trkpt><trkpt lat="49.45977118662084" lon="2.980882320933363"><ele>113.0</ele><time>2026-04-07T08:49:40Z</time></trkpt><trkpt lat="49.45968710303347" lon="2.980732960634604"><ele>113.80000000000001</ele><time>2026-04-07T08:49:42Z</time></trkpt><trkpt lat="49.459645213445036" lon="2.9806405965294"><ele>114.60000000000001</ele><time>2026-04-07T08:49:43Z</time></trkpt><trkpt lat="49.4596073107307" lon="2.980539577427725"><ele>115.39999999999999</ele><time>2026-04-07T08:49:44Z</time></trkpt><trkpt lat="49.459538864028175" lon="2.9804275969676772"><ele>116.19999999999999</ele><time>2026-04-07T08:49:46Z</time></trkpt><trkpt lat="49.45952571283401" lon="2.980262734729429"><ele>117.0</ele><time>2026-04-07T08:49:48Z</time></trkpt><trkpt lat="49.45939786446058" lon="2.98009299392333"><ele>117.39999999999999</ele><time>2026-04-07T08:49:50Z</time></trkpt><trkpt lat="49.459341775796716" lon="2.9799767240113106"><ele>117.79999999999998</ele><time>2026-04-07T08:49:51Z</time></trkpt><trkpt lat="49.45928344817595" lon="2.9798750385791495"><ele>118.2</ele><time>2026-04-07T08:49:54Z</time></trkpt><trkpt lat="49.45921517254715" lon="2.9797754089999215"><ele>118.6</ele><time>2026-04-07T08:49:57Z</time></trkpt><trkpt lat="49.45914317632011" lon="2.9797372394902597"><ele>119.0</ele><time>2026-04-07T08:49:58Z</time></trkpt><trkpt lat="49.45905112283128" lon="2.9795991759558533"><ele>119.0</ele><time>2026-04-07T08:50:00Z</time></trkpt><trkpt lat="49.45898438118491" lon="2.9794432421085166"><ele>119.0</ele><time>2026-04-07T08:50:01Z</time></trkpt><trkpt lat="49.45889402073672" lon="2.9792783383716395"><ele>119.0</ele><time>2026-04-07T08:50:02Z</time></trkpt><trkpt lat="49.45882701106133" lon="2.9791045471878497"><ele>119.0</ele><time>2026-04-07T08:50:03Z</time></trkpt><trkpt lat="49.45877082350353" lon="2.9789229126134527"><ele>119.75</ele><time>2026-04-07T08:50:04Z</time></trkpt><trkpt lat="49.458727693400945" lon="2.9787045240334242"><ele>120.5</ele><time>2026-04-07T08:50:05Z</time></trkpt><trkpt lat="49.458686392611924" lon="2.978444599802486"><ele>121.25</ele><time>2026-04-07T08:50:06Z</time></trkpt><trkpt lat="49.45861796854192" lon="2.9785665960506096"><ele>122.0</ele><time>2026-04-07T08:50:07Z</time></trkpt><trkpt lat="49.45855187190154" lon="2.9785094684764"><ele>122.0</ele><time>2026-04-07T08:50:09Z</time></trkpt><trkpt lat="49.45845179278032" lon="2.9784990299982543"><ele>122.0</ele><time>2026-04-07T08:50:11Z</time></trkpt><trkpt lat="49.45839266360152" lon="2.97836051495244"><ele>122.0</ele><time>2026-04-07T08:50:13Z</time></trkpt><trkpt lat="49.458363326507815" lon="2.978221804652491"><ele>122.0</ele><time>2026-04-07T08:50:14Z</time></trkpt><trkpt lat="49.45828108150019" lon="2.978011319220426"><ele>121.8</ele><time>2026-04-07T08:50:16Z</time></trkpt><trkpt lat="49.45821542061793" lon="2.9778978885962055"><ele>121.6</ele><time>2026-04-07T08:50:17Z</time></trkpt><trkpt lat="49.45811641807981" lon="2.977790490060828"><ele>121.39999999999999</ele><time>2026-04-07T08:50:18Z</time></trkpt><trkpt lat="49.458044585531205" lon="2.977700384258243"><ele>121.19999999999999</ele><time>2026-04-07T08:50:19Z</time></trkpt><trkpt lat="49.45797172640888" lon="2.9776434345467675"><ele>121.0</ele><time>2026-04-07T08:50:20Z</time></trkpt><trkpt lat="49.457912047623815" lon="2.977601819756049"><ele>120.8</ele><time>2026-04-07T08:50:21Z</time></trkpt><trkpt lat="49.45787272771101" lon="2.97752521724757"><ele>120.6</ele><time>2026-04-07T08:50:22Z</time></trkpt><trkpt lat="49.45781905531205" lon="2.977367035864748"><ele>120.4</ele><time>2026-04-07T08:50:23Z</time></trkpt><trkpt lat="49.45775479313356" lon="2.977200480721914"><ele>120.2</ele><time>2026-04-07T08:50:24Z</time></trkpt><trkpt lat="49.45770749591994" lon="2.977071125327244"><ele>120.0</ele><time>2026-04-07T08:50:25Z</time></trkpt><trkpt lat="49.45765351168629" lon="2.9769455084408687"><ele>120.0</ele><time>2026-04-07T08:50:26Z</time></trkpt><trkpt lat="49.45759910641113" lon="2.97684318804017"><ele>120.0</ele><time>2026-04-07T08:50:27Z</time></trkpt><trkpt lat="49.457541402401446" lon="2.976773178790442"><ele>120.0</ele><time>2026-04-07T08:50:28Z</time></trkpt><trkpt lat="49.45747456257752" lon="2.9767892546352597"><ele>120.0</ele><time>2026-04-07T08:50:29Z</time></trkpt><trkpt lat="49.45735377750286" lon="2.9768738016551803"><ele>120.0</ele><time>2026-04-07T08:50:31Z</time></trkpt><trkpt lat="49.45728507092501" lon="2.9769773973483775"><ele>120.0</ele><time>2026-04-07T08:50:32Z</time></trkpt><trkpt lat="49.45721841342066" lon="2.9770826711762433"><ele>120.0</ele><time>2026-04-07T08:50:33Z</time></trkpt><trkpt lat="49.45717589381646" lon="2.977186390114825"><ele>120.0</ele><time>2026-04-07T08:50:34Z</time></trkpt><trkpt lat="49.45711571327654" lon="2.9773083354566685"><ele>120.0</ele><time>2026-04-07T08:50:35Z</time></trkpt><trkpt lat="49.45704561439081" lon="2.977390669489539"><ele>120.0</ele><time>2026-04-07T08:50:36Z</time></trkpt><trkpt lat="49.456955275049175" lon="2.97751123738476"><ele>121.2</ele><time>2026-04-07T08:50:38Z</time></trkpt><trkpt lat="49.45690243216668" lon="2.9776226882133607"><ele>122.4</ele><time>2026-04-07T08:50:39Z</time></trkpt><trkpt lat="49.45683835971956" lon="2.9776894427422875"><ele>123.6</ele><time>2026-04-07T08:50:40Z</time></trkpt><trkpt lat="49.45677912576428" lon="2.977729700451801"><ele>124.8</ele><time>2026-04-07T08:50:41Z</time></trkpt><trkpt lat="49.45667951630004" lon="2.9778073110930725"><ele>126.0</ele><time>2026-04-07T08:50:42Z</time></trkpt><trkpt lat="49.45651571311418" lon="2.9778428988145915"><ele>126.0</ele><time>2026-04-07T08:50:43Z</time></trkpt><trkpt lat="49.45639357655598" lon="2.977866491746281"><ele>126.0</ele><time>2026-04-07T08:50:44Z</time></trkpt><trkpt lat="49.456364535010174" lon="2.9779567538737313"><ele>126.0</ele><time>2026-04-07T08:50:45Z</time></trkpt><trkpt lat="49.45632499764983" lon="2.9780423077465206"><ele>126.0</ele><time>2026-04-07T08:50:46Z</time></trkpt><trkpt lat="49.45628341497531" lon="2.978171633160079"><ele>126.0</ele><time>2026-04-07T08:50:47Z</time></trkpt><trkpt lat="49.456244411649976" lon="2.9783536915375817"><ele>125.25</ele><time>2026-04-07T08:50:48Z</time></trkpt><trkpt lat="49.45619121966878" lon="2.9785642116154536"><ele>124.5</ele><time>2026-04-07T08:50:49Z</time></trkpt><trkpt lat="49.45613031803402" lon="2.9787497582131306"><ele>123.75</ele><time>2026-04-07T08:50:50Z</time></trkpt><trkpt lat="49.45607127908815" lon="2.978870285521557"><ele>123.0</ele><time>2026-04-07T08:50:51Z</time></trkpt><trkpt lat="49.45599490649754" lon="2.978963181756533"><ele>123.0</ele><time>2026-04-07T08:50:52Z</time></trkpt><trkpt lat="49.45593462341739" lon="2.9790737872406186"><ele>123.00000000000001</ele><time>2026-04-07T08:50:53Z</time></trkpt><trkpt lat="49.455875714175214" lon="2.9792025891876097"><ele>123.00000000000001</ele><time>2026-04-07T08:50:54Z</time></trkpt><trkpt lat="49.45581083868931" lon="2.979315731201156"><ele>123.0</ele><time>2026-04-07T08:50:55Z</time></trkpt><trkpt lat="49.45569714119981" lon="2.979461868461145"><ele>123.0</ele><time>2026-04-07T08:50:56Z</time></trkpt><trkpt lat="49.455614390639454" lon="2.979555377372031"><ele>123.2</ele><time>2026-04-07T08:50:57Z</time></trkpt><trkpt lat="49.45553103930887" lon="2.9797229918623915"><ele>123.4</ele><time>2026-04-07T08:50:59Z</time></trkpt><trkpt lat="49.45545137572499" lon="2.979850043786364"><ele>123.60000000000001</ele><time>2026-04-07T08:51:00Z</time></trkpt><trkpt lat="49.45538110958241" lon="2.9799278845348107"><ele>123.80000000000001</ele><time>2026-04-07T08:51:01Z</time></trkpt><trkpt lat="49.45532458153303" lon="2.9799883316578235"><ele>124.0</ele><time>2026-04-07T08:51:02Z</time></trkpt><trkpt lat="49.45524960586684" lon="2.9801516181662806"><ele>124.33333333333334</ele><time>2026-04-07T08:51:04Z</time></trkpt><trkpt lat="49.45520442660503" lon="2.9802657443592064"><ele>124.66666666666667</ele><time>2026-04-07T08:51:05Z</time></trkpt><trkpt lat="49.45516620077699" lon="2.9803519894283705"><ele>125.0</ele><time>2026-04-07T08:51:06Z</time></trkpt><trkpt lat="49.45508530394236" lon="2.9804467987754637"><ele>125.33333333333334</ele><time>2026-04-07T08:51:08Z</time></trkpt><trkpt lat="49.454994799627265" lon="2.9805657083862487"><ele>125.66666666666667</ele><time>2026-04-07T08:51:10Z</time></trkpt><trkpt lat="49.454954521733875" lon="2.9806605774648207"><ele>126.0</ele><time>2026-04-07T08:51:11Z</time></trkpt><trkpt lat="49.45486230459171" lon="2.9807780795108836"><ele>125.83333333333333</ele><time>2026-04-07T08:51:13Z</time></trkpt><trkpt lat="49.45482200693224" lon="2.980873529388701"><ele>125.66666666666666</ele><time>2026-04-07T08:51:14Z</time></trkpt><trkpt lat="49.45478721557387" lon="2.9809989386409907"><ele>125.5</ele><time>2026-04-07T08:51:15Z</time></trkpt><trkpt lat="49.45473584022726" lon="2.9811082956535313"><ele>125.33333333333333</ele><time>2026-04-07T08:51:16Z</time></trkpt><trkpt lat="49.45469179763649" lon="2.981191868818155"><ele>125.16666666666666</ele><time>2026-04-07T08:51:17Z</time></trkpt><trkpt lat="49.45463468727474" lon="2.981255845173365"><ele>125.0</ele><time>2026-04-07T08:51:18Z</time></trkpt><trkpt lat="49.454520223198784" lon="2.981330788070916"><ele>123.66666666666666</ele><time>2026-04-07T08:51:19Z</time></trkpt><trkpt lat="49.45433682126901" lon="2.98146994665121"><ele>122.33333333333334</ele><time>2026-04-07T08:51:20Z</time></trkpt><trkpt lat="49.45413160615733" lon="2.981607093031823"><ele>121.0</ele><time>2026-04-07T08:51:21Z</time></trkpt><trkpt lat="49.45401401062182" lon="2.981737258658335"><ele>121.0</ele><time>2026-04-07T08:51:22Z</time></trkpt><trkpt lat="49.453896205304865" lon="2.981830098718007"><ele>121.0</ele><time>2026-04-07T08:51:23Z</time></trkpt><trkpt lat="49.45378317328639" lon="2.981927521525756"><ele>121.0</ele><time>2026-04-07T08:51:24Z</time></trkpt><trkpt lat="49.45369226035358" lon="2.9820262485871734"><ele>121.0</ele><time>2026-04-07T08:51:25Z</time></trkpt><trkpt lat="49.45360189532222" lon="2.9821126480282376"><ele>120.0</ele><time>2026-04-07T08:51:26Z</time></trkpt><trkpt lat="49.4534702091831" lon="2.9822029861688413"><ele>119.0</ele><time>2026-04-07T08:51:27Z</time></trkpt><trkpt lat="49.45337043240171" lon="2.9822635740014123"><ele>118.0</ele><time>2026-04-07T08:51:28Z</time></trkpt><trkpt lat="49.45327082395495" lon="2.9823342910312953"><ele>117.0</ele><time>2026-04-07T08:51:29Z</time></trkpt><trkpt lat="49.45318666864919" lon="2.9824070611067097"><ele>117.0</ele><time>2026-04-07T08:51:30Z</time></trkpt><trkpt lat="49.4531021574699" lon="2.9824704447182104"><ele>117.0</ele><time>2026-04-07T08:51:31Z</time></trkpt><trkpt lat="49.453028742586625" lon="2.982520080187363"><ele>117.0</ele><time>2026-04-07T08:51:32Z</time></trkpt><trkpt lat="49.452952943395395" lon="2.982576236930091"><ele>117.0</ele><time>2026-04-07T08:51:33Z</time></trkpt><trkpt lat="49.45288194589775" lon="2.9826523596261736"><ele>117.0</ele><time>2026-04-07T08:51:34Z</time></trkpt><trkpt lat="49.45282502621132" lon="2.9827588165163244"><ele>117.0</ele><time>2026-04-07T08:51:35Z</time></trkpt><trkpt lat="49.45274454802232" lon="2.982924743826689"><ele>115.75</ele><time>2026-04-07T08:51:36Z</time></trkpt><trkpt lat="49.45263376704002" lon="2.9831553634135792"><ele>114.5</ele><time>2026-04-07T08:51:37Z</time></trkpt><trkpt lat="49.45255781824672" lon="2.983324268736684"><ele>113.25</ele><time>2026-04-07T08:51:38Z</time></trkpt><trkpt lat="49.45250467678751" lon="2.9834562665158133"><ele>112.0</ele><time>2026-04-07T08:51:39Z</time></trkpt><trkpt lat="49.452439413568825" lon="2.9835657551216856"><ele>112.0</ele><time>2026-04-07T08:51:40Z</time></trkpt><trkpt lat="49.45239774570513" lon="2.983668944483894"><ele>111.99999999999999</ele><time>2026-04-07T08:51:41Z</time></trkpt><trkpt lat="49.45237179936212" lon="2.9837948326373764"><ele>111.99999999999999</ele><time>2026-04-07T08:51:42Z</time></trkpt><trkpt lat="49.452355212012336" lon="2.983924149179861"><ele>112.0</ele><time>2026-04-07T08:51:43Z</time></trkpt><trkpt lat="49.45231185205916" lon="2.9840225277077015"><ele>112.0</ele><time>2026-04-07T08:51:44Z</time></trkpt><trkpt lat="49.45229241444183" lon="2.9842428515673016"><ele>112.39999999999999</ele><time>2026-04-07T08:51:46Z</time></trkpt><trkpt lat="49.45227531534319" lon="2.9844081211536424"><ele>112.79999999999998</ele><time>2026-04-07T08:51:47Z</time></trkpt><trkpt lat="49.45225451126817" lon="2.984516109554623"><ele>113.2</ele><time>2026-04-07T08:51:48Z</time></trkpt><trkpt lat="49.45222709708581" lon="2.9846165054542904"><ele>113.6</ele><time>2026-04-07T08:51:49Z</time></trkpt><trkpt lat="49.452141644527885" lon="2.9847591184739635"><ele>114.0</ele><time>2026-04-07T08:51:51Z</time></trkpt><trkpt lat="49.45208024528633" lon="2.9848184998230893"><ele>113.0</ele><time>2026-04-07T08:51:52Z</time></trkpt><trkpt lat="49.45199854981829" lon="2.9849222323267703"><ele>112.0</ele><time>2026-04-07T08:51:54Z</time></trkpt><trkpt lat="49.451955900475625" lon="2.985001352769888"><ele>111.0</ele><time>2026-04-07T08:51:55Z</time></trkpt><trkpt lat="49.45192476030589" lon="2.9850906035887643"><ele>110.0</ele><time>2026-04-07T08:51:56Z</time></trkpt><trkpt lat="49.45187650397462" lon="2.9851629414389516"><ele>109.0</ele><time>2026-04-07T08:51:57Z</time></trkpt><trkpt lat="49.45181666504472" lon="2.9852848309736957"><ele>108.0</ele><time>2026-04-07T08:51:59Z</time></trkpt><trkpt lat="49.45174132588513" lon="2.9853739542838555"><ele>108.0</ele><time>2026-04-07T08:52:01Z</time></trkpt><trkpt lat="49.451671499218186" lon="2.985521817972835"><ele>108.0</ele><time>2026-04-07T08:52:03Z</time></trkpt><trkpt lat="49.45156996614782" lon="2.98563711895307"><ele>108.0</ele><time>2026-04-07T08:52:05Z</time></trkpt><trkpt lat="49.45148359222946" lon="2.9857260234293097"><ele>108.0</ele><time>2026-04-07T08:52:07Z</time></trkpt><trkpt lat="49.451437816793714" lon="2.9858711647399017"><ele>108.0</ele><time>2026-04-07T08:52:09Z</time></trkpt><trkpt lat="49.45132581937525" lon="2.9859464185781244"><ele>108.0</ele><time>2026-04-07T08:52:11Z</time></trkpt><trkpt lat="49.45125936318011" lon="2.9859326053114166"><ele>108.0</ele><time>2026-04-07T08:52:12Z</time></trkpt><trkpt lat="49.45120304657343" lon="2.9860600897554397"><ele>108.0</ele><time>2026-04-07T08:52:14Z</time></trkpt><trkpt lat="49.45117549132547" lon="2.98616437855691"><ele>108.0</ele><time>2026-04-07T08:52:15Z</time></trkpt><trkpt lat="49.45114535682424" lon="2.9862657710888634"><ele>108.0</ele><time>2026-04-07T08:52:16Z</time></trkpt><trkpt lat="49.451114635115715" lon="2.986352697294112"><ele>106.0</ele><time>2026-04-07T08:52:17Z</time></trkpt><trkpt lat="49.45106612884795" lon="2.9865102560368144"><ele>104.00000000000001</ele><time>2026-04-07T08:52:19Z</time></trkpt><trkpt lat="49.450978731080255" lon="2.9865878808326762"><ele>102.0</ele><time>2026-04-07T08:52:21Z</time></trkpt><trkpt lat="49.450868720578164" lon="2.986627026167245"><ele>100.0</ele><time>2026-04-07T08:52:23Z</time></trkpt><trkpt lat="49.4507676780683" lon="2.9865963606891732"><ele>98.0</ele><time>2026-04-07T08:52:26Z</time></trkpt><trkpt lat="49.450703891820794" lon="2.986638094510817"><ele>97.66666666666666</ele><time>2026-04-07T08:52:28Z</time></trkpt><trkpt lat="49.450697862810856" lon="2.9867429551252975"><ele>97.33333333333333</ele><time>2026-04-07T08:52:30Z</time></trkpt><trkpt lat="49.45062723695791" lon="2.9869074067518104"><ele>97.0</ele><time>2026-04-07T08:52:32Z</time></trkpt><trkpt lat="49.4505630990048" lon="2.986998575705479"><ele>96.66666666666666</ele><time>2026-04-07T08:52:33Z</time></trkpt><trkpt lat="49.4505098089737" lon="2.9870721468216415"><ele>96.33333333333333</ele><time>2026-04-07T08:52:34Z</time></trkpt><trkpt lat="49.45047861180115" lon="2.9871565573371934"><ele>96.0</ele><time>2026-04-07T08:52:35Z</time></trkpt><trkpt lat="49.450450781819065" lon="2.987262637765431"><ele>95.6</ele><time>2026-04-07T08:52:36Z</time></trkpt><trkpt lat="49.450412645769056" lon="2.9874305568678623"><ele>95.19999999999999</ele><time>2026-04-07T08:52:37Z</time></trkpt><trkpt lat="49.45040137691678" lon="2.9875827129497954"><ele>94.80000000000001</ele><time>2026-04-07T08:52:38Z</time></trkpt><trkpt lat="49.45034777341189" lon="2.987767675939637"><ele>94.4</ele><time>2026-04-07T08:52:39Z</time></trkpt><trkpt lat="49.4503455570907" lon="2.9879087082132973"><ele>94.0</ele><time>2026-04-07T08:52:40Z</time></trkpt><trkpt lat="49.45029891055412" lon="2.9881683688775227"><ele>94.66666666666666</ele><time>2026-04-07T08:52:41Z</time></trkpt><trkpt lat="49.450231319038274" lon="2.9884606591600584"><ele>95.33333333333333</ele><time>2026-04-07T08:52:42Z</time></trkpt><trkpt lat="49.450186303015734" lon="2.988704637514972"><ele>96.0</ele><time>2026-04-07T08:52:43Z</time></trkpt><trkpt lat="49.45011875266748" lon="2.988957657267264"><ele>96.0</ele><time>2026-04-07T08:52:44Z</time></trkpt><trkpt lat="49.45031994160013" lon="2.988962657527992"><ele>96.0</ele><time>2026-04-07T08:52:45Z</time></trkpt><trkpt lat="49.45031734046246" lon="2.9891549095624"><ele>96.0</ele><time>2026-04-07T08:52:46Z</time></trkpt><trkpt lat="49.45032442133942" lon="2.9893737977006456"><ele>95.75</ele><time>2026-04-07T08:52:47Z</time></trkpt><trkpt lat="49.45032647687342" lon="2.9895735527627507"><ele>95.5</ele><time>2026-04-07T08:52:48Z</time></trkpt><trkpt lat="49.450324296257214" lon="2.9897547505400515"><ele>95.25</ele><time>2026-04-07T08:52:49Z</time></trkpt><trkpt lat="49.45033142993148" lon="2.989926707722894"><ele>95.0</ele><time>2026-04-07T08:52:50Z</time></trkpt><trkpt lat="49.45032978002502" lon="2.9900828903023893"><ele>93.6</ele><time>2026-04-07T08:52:51Z</time></trkpt><trkpt lat="49.45033575667782" lon="2.9902169181823868"><ele>92.2</ele><time>2026-04-07T08:52:52Z</time></trkpt><trkpt lat="49.45032583941519" lon="2.990352767108586"><ele>90.80000000000001</ele><time>2026-04-07T08:52:53Z</time></trkpt><trkpt lat="49.450329242658924" lon="2.9904820465008743"><ele>89.4</ele><time>2026-04-07T08:52:54Z</time></trkpt><trkpt lat="49.45031757642519" lon="2.9906058785058782"><ele>88.0</ele><time>2026-04-07T08:52:55Z</time></trkpt><trkpt lat="49.450288589275246" lon="2.99078494379959"><ele>86.16666666666666</ele><time>2026-04-07T08:52:57Z</time></trkpt><trkpt lat="49.450247782788566" lon="2.990865217972373"><ele>84.33333333333333</ele><time>2026-04-07T08:52:58Z</time></trkpt><trkpt lat="49.45020163028881" lon="2.9909561867762324"><ele>82.5</ele><time>2026-04-07T08:52:59Z</time></trkpt><trkpt lat="49.450142188967426" lon="2.991045994132923"><ele>80.66666666666667</ele><time>2026-04-07T08:53:00Z</time></trkpt><trkpt lat="49.45007671135096" lon="2.991140543515658"><ele>78.83333333333334</ele><time>2026-04-07T08:53:01Z</time></trkpt><trkpt lat="49.45001388355414" lon="2.991221540565471"><ele>77.0</ele><time>2026-04-07T08:53:02Z</time></trkpt><trkpt lat="49.449936977961954" lon="2.9912663833294686"><ele>77.0</ele><time>2026-04-07T08:53:03Z</time></trkpt><trkpt lat="49.449848162497396" lon="2.991297596320354"><ele>77.0</ele><time>2026-04-07T08:53:04Z</time></trkpt><trkpt lat="49.449757142431054" lon="2.991314368560796"><ele>77.0</ele><time>2026-04-07T08:53:05Z</time></trkpt><trkpt lat="49.449670433365156" lon="2.9913291621646034"><ele>77.0</ele><time>2026-04-07T08:53:06Z</time></trkpt><trkpt lat="49.449604933457984" lon="2.9913289417833617"><ele>77.0</ele><time>2026-04-07T08:53:07Z</time></trkpt><trkpt lat="49.44954461046748" lon="2.991357502674018"><ele>77.0</ele><time>2026-04-07T08:53:08Z</time></trkpt><trkpt lat="49.44948013420551" lon="2.9913693246687223"><ele>78.0</ele><time>2026-04-07T08:53:09Z</time></trkpt><trkpt lat="49.4493880972937" lon="2.991404306091487"><ele>79.0</ele><time>2026-04-07T08:53:10Z</time></trkpt><trkpt lat="49.44929588763379" lon="2.9914301412622186"><ele>80.0</ele><time>2026-04-07T08:53:11Z</time></trkpt><trkpt lat="49.449217873577375" lon="2.991445687124074"><ele>81.0</ele><time>2026-04-07T08:53:12Z</time></trkpt><trkpt lat="49.449137638064656" lon="2.9914612757002583"><ele>82.0</ele><time>2026-04-07T08:53:13Z</time></trkpt><trkpt lat="49.449056974198" lon="2.9914796632097653"><ele>83.0</ele><time>2026-04-07T08:53:14Z</time></trkpt><trkpt lat="49.44896439236926" lon="2.991507247309735"><ele>83.0</ele><time>2026-04-07T08:53:15Z</time></trkpt><trkpt lat="49.448865089141464" lon="2.9915640976143534"><ele>83.0</ele><time>2026-04-07T08:53:16Z</time></trkpt><trkpt lat="49.44872708958807" lon="2.9915968026678876"><ele>83.0</ele><time>2026-04-07T08:53:17Z</time></trkpt><trkpt lat="49.44864612647424" lon="2.9916714220667466"><ele>83.0</ele><time>2026-04-07T08:53:18Z</time></trkpt><trkpt lat="49.4484478342533" lon="2.9916342402301987"><ele>83.60000000000001</ele><time>2026-04-07T08:53:19Z</time></trkpt><trkpt lat="49.44833439388872" lon="2.9916636170045052"><ele>84.2</ele><time>2026-04-07T08:53:20Z</time></trkpt><trkpt lat="49.44823289753179" lon="2.991681216902681"><ele>84.8</ele><time>2026-04-07T08:53:21Z</time></trkpt><trkpt lat="49.448138135168406" lon="2.991695201689776"><ele>85.4</ele><time>2026-04-07T08:53:22Z</time></trkpt><trkpt lat="49.44805862143251" lon="2.991726899352675"><ele>86.0</ele><time>2026-04-07T08:53:23Z</time></trkpt><trkpt lat="49.4479685585972" lon="2.9917511299421653"><ele>84.16666666666667</ele><time>2026-04-07T08:53:24Z</time></trkpt><trkpt lat="49.44788487644989" lon="2.991769038238567"><ele>82.33333333333334</ele><time>2026-04-07T08:53:25Z</time></trkpt><trkpt lat="49.447798766192385" lon="2.9917993515660513"><ele>80.5</ele><time>2026-04-07T08:53:26Z</time></trkpt><trkpt lat="49.44772319534786" lon="2.9918456871477055"><ele>78.66666666666667</ele><time>2026-04-07T08:53:27Z</time></trkpt><trkpt lat="49.447659649181034" lon="2.9918960713167513"><ele>76.83333333333333</ele><time>2026-04-07T08:53:28Z</time></trkpt><trkpt lat="49.447579261526904" lon="2.9920031385508543"><ele>75.0</ele><time>2026-04-07T08:53:30Z</time></trkpt><trkpt lat="49.44751980369614" lon="2.99216059439064"><ele>75.0</ele><time>2026-04-07T08:53:32Z</time></trkpt><trkpt lat="49.44750372317117" lon="2.992334088304461"><ele>75.0</ele><time>2026-04-07T08:53:34Z</time></trkpt><trkpt lat="49.44748568797152" lon="2.9924700536730415"><ele>75.0</ele><time>2026-04-07T08:53:36Z</time></trkpt><trkpt lat="49.447466942760144" lon="2.9926310895084964"><ele>75.0</ele><time>2026-04-07T08:53:38Z</time></trkpt><trkpt lat="49.447456886267915" lon="2.9928254834494012"><ele>75.0</ele><time>2026-04-07T08:53:40Z</time></trkpt><trkpt lat="49.44744001414384" lon="2.9929809476284834"><ele>74.75</ele><time>2026-04-07T08:53:41Z</time></trkpt><trkpt lat="49.447451634844604" lon="2.99315172367841"><ele>74.5</ele><time>2026-04-07T08:53:42Z</time></trkpt><trkpt lat="49.44745161800435" lon="2.9933773250143902"><ele>74.25</ele><time>2026-04-07T08:53:43Z</time></trkpt><trkpt lat="49.447472285407756" lon="2.9935573518100833"><ele>74.0</ele><time>2026-04-07T08:53:44Z</time></trkpt><trkpt lat="49.447471164869405" lon="2.993671516281382"><ele>74.0</ele><time>2026-04-07T08:53:45Z</time></trkpt><trkpt lat="49.44748669165084" lon="2.993786013601686"><ele>74.0</ele><time>2026-04-07T08:53:46Z</time></trkpt><trkpt lat="49.44745214544756" lon="2.993692237988361"><ele>74.0</ele><time>2026-04-07T08:53:51Z</time></trkpt><trkpt lat="49.44747167273591" lon="2.993563391072295"><ele>74.0</ele><time>2026-04-07T08:53:52Z</time></trkpt><trkpt lat="49.447465899723085" lon="2.9934183572598063"><ele>74.0</ele><time>2026-04-07T08:53:53Z</time></trkpt><trkpt lat="49.447456229000025" lon="2.993230083595559"><ele>74.0</ele><time>2026-04-07T08:53:54Z</time></trkpt><trkpt lat="49.44745370774723" lon="2.9929710888865193"><ele>74.0</ele><time>2026-04-07T08:53:55Z</time></trkpt><trkpt lat="49.447475748081125" lon="2.9926511038970203"><ele>74.0</ele><time>2026-04-07T08:53:56Z</time></trkpt><trkpt lat="49.44750644923559" lon="2.9922944158259384"><ele>74.0</ele><time>2026-04-07T08:53:57Z</time></trkpt><trkpt lat="49.44748639479612" lon="2.9924497903480844"><ele>74.16666666666667</ele><time>2026-04-07T08:53:58Z</time></trkpt><trkpt lat="49.44751247123121" lon="2.9923050478868984"><ele>74.33333333333334</ele><time>2026-04-07T08:53:59Z</time></trkpt><trkpt lat="49.4475459695187" lon="2.9921842590145746"><ele>74.5</ele><time>2026-04-07T08:54:00Z</time></trkpt><trkpt lat="49.44758318001414" lon="2.9920828737365444"><ele>74.66666666666667</ele><time>2026-04-07T08:54:01Z</time></trkpt><trkpt lat="49.447627839555686" lon="2.9919935727201796"><ele>74.83333333333333</ele><time>2026-04-07T08:54:02Z</time></trkpt><trkpt lat="49.44767250928475" lon="2.9919232026189135"><ele>75.0</ele><time>2026-04-07T08:54:03Z</time></trkpt><trkpt lat="49.44772484065748" lon="2.99186118316323"><ele>75.0</ele><time>2026-04-07T08:54:04Z</time></trkpt><trkpt lat="49.44779043891761" lon="2.991802897173228"><ele>75.0</ele><time>2026-04-07T08:54:05Z</time></trkpt><trkpt lat="49.44788248654548" lon="2.991744470133926"><ele>75.0</ele><time>2026-04-07T08:54:06Z</time></trkpt><trkpt lat="49.447978068741776" lon="2.9916965120813743"><ele>75.0</ele><time>2026-04-07T08:54:07Z</time></trkpt><trkpt lat="49.44807341511344" lon="2.991641988404443"><ele>75.0</ele><time>2026-04-07T08:54:08Z</time></trkpt><trkpt lat="49.44819480202498" lon="2.9916339408269956"><ele>77.75</ele><time>2026-04-07T08:54:09Z</time></trkpt><trkpt lat="49.448296654289535" lon="2.991612104833124"><ele>80.5</ele><time>2026-04-07T08:54:10Z</time></trkpt><trkpt lat="49.44841838747507" lon="2.991599644466625"><ele>83.25</ele><time>2026-04-07T08:54:11Z</time></trkpt><trkpt lat="49.44854935918389" lon="2.9915755083033138"><ele>86.0</ele><time>2026-04-07T08:54:12Z</time></trkpt><trkpt lat="49.448669111021445" lon="2.9915490172988024"><ele>86.0</ele><time>2026-04-07T08:54:13Z</time></trkpt><trkpt lat="49.44876101005306" lon="2.9915360333732797"><ele>86.0</ele><time>2026-04-07T08:54:14Z</time></trkpt><trkpt lat="49.44885720320659" lon="2.99152335718036"><ele>86.0</ele><time>2026-04-07T08:54:15Z</time></trkpt><trkpt lat="49.44895206000983" lon="2.99149278740777"><ele>86.0</ele><time>2026-04-07T08:54:16Z</time></trkpt><trkpt lat="49.4490510216393" lon="2.991471574860278"><ele>86.0</ele><time>2026-04-07T08:54:17Z</time></trkpt><trkpt lat="49.449150855157214" lon="2.991451132282815"><ele>85.4</ele><time>2026-04-07T08:54:18Z</time></trkpt><trkpt lat="49.44924931783605" lon="2.9914219043159647"><ele>84.8</ele><time>2026-04-07T08:54:19Z</time></trkpt><trkpt lat="49.44933541967871" lon="2.9913864075351793"><ele>84.2</ele><time>2026-04-07T08:54:20Z</time></trkpt><trkpt lat="49.44943931682902" lon="2.9913678228848606"><ele>83.60000000000001</ele><time>2026-04-07T08:54:21Z</time></trkpt><trkpt lat="49.449519395913825" lon="2.991366225617581"><ele>83.0</ele><time>2026-04-07T08:54:22Z</time></trkpt><trkpt lat="49.44960200946617" lon="2.9913313433776914"><ele>81.80000000000001</ele><time>2026-04-07T08:54:23Z</time></trkpt><trkpt lat="49.44969903163214" lon="2.991298067172155"><ele>80.60000000000001</ele><time>2026-04-07T08:54:24Z</time></trkpt><trkpt lat="49.44979611559394" lon="2.991265464549344"><ele>79.4</ele><time>2026-04-07T08:54:25Z</time></trkpt><trkpt lat="49.449893435550194" lon="2.9912483314756133"><ele>78.2</ele><time>2026-04-07T08:54:26Z</time></trkpt><trkpt lat="49.44998244807128" lon="2.9911989445790153"><ele>77.0</ele><time>2026-04-07T08:54:27Z</time></trkpt><trkpt lat="49.450065084466836" lon="2.9911288917911114"><ele>77.0</ele><time>2026-04-07T08:54:28Z</time></trkpt><trkpt lat="49.45012644144309" lon="2.991036931187503"><ele>77.0</ele><time>2026-04-07T08:54:29Z</time></trkpt><trkpt lat="49.45019249474246" lon="2.9909250755254626"><ele>77.0</ele><time>2026-04-07T08:54:30Z</time></trkpt><trkpt lat="49.450257504651766" lon="2.99080594283112"><ele>77.0</ele><time>2026-04-07T08:54:31Z</time></trkpt><trkpt lat="49.45029919977973" lon="2.990693644574657"><ele>77.0</ele><time>2026-04-07T08:54:32Z</time></trkpt><trkpt lat="49.45034483896026" lon="2.9905763711860094"><ele>77.0</ele><time>2026-04-07T08:54:34Z</time></trkpt><trkpt lat="49.45022989665039" lon="2.9905795710746195"><ele>77.0</ele><time>2026-04-07T08:54:39Z</time></trkpt><trkpt lat="49.450151760059896" lon="2.9906875966318713"><ele>77.0</ele><time>2026-04-07T08:54:40Z</time></trkpt><trkpt lat="49.450082241818556" lon="2.9908140439146274"><ele>77.0</ele><time>2026-04-07T08:54:41Z</time></trkpt><trkpt lat="49.450042114166536" lon="2.9909173624438363"><ele>77.0</ele><time>2026-04-07T08:54:42Z</time></trkpt><trkpt lat="49.44994582035607" lon="2.9909167874713583"><ele>77.0</ele><time>2026-04-07T08:54:43Z</time></trkpt><trkpt lat="49.44986818358743" lon="2.990888676620622"><ele>77.0</ele><time>2026-04-07T08:54:44Z</time></trkpt><trkpt lat="49.44977970055649" lon="2.9908622704718124"><ele>77.0</ele><time>2026-04-07T08:54:45Z</time></trkpt><trkpt lat="49.44967763737174" lon="2.9908155131918406"><ele>77.0</ele><time>2026-04-07T08:54:46Z</time></trkpt><trkpt lat="49.44956038015616" lon="2.990784205520868"><ele>77.0</ele><time>2026-04-07T08:54:47Z</time></trkpt><trkpt lat="49.449464971983794" lon="2.990733122670718"><ele>82.5</ele><time>2026-04-07T08:54:48Z</time></trkpt><trkpt lat="49.44933678915573" lon="2.9906811546961087"><ele>88.0</ele><time>2026-04-07T08:54:49Z</time></trkpt><trkpt lat="49.44921866517476" lon="2.9906509183340404"><ele>93.5</ele><time>2026-04-07T08:54:50Z</time></trkpt><trkpt lat="49.44909803371083" lon="2.9906418669274393"><ele>99.0</ele><time>2026-04-07T08:54:51Z</time></trkpt><trkpt lat="49.4489854724524" lon="2.9906363916882945"><ele>99.0</ele><time>2026-04-07T08:54:52Z</time></trkpt><trkpt lat="49.448861523796936" lon="2.990633961164731"><ele>99.0</ele><time>2026-04-07T08:54:53Z</time></trkpt><trkpt lat="49.44874844376666" lon="2.9906273739913223"><ele>99.0</ele><time>2026-04-07T08:54:54Z</time></trkpt><trkpt lat="49.448672982234186" lon="2.9906188924094734"><ele>99.0</ele><time>2026-04-07T08:54:55Z</time></trkpt><trkpt lat="49.448564113772555" lon="2.9905777403250178"><ele>99.0</ele><time>2026-04-07T08:54:57Z</time></trkpt><trkpt lat="49.44845997382852" lon="2.99054354283818"><ele>98.5</ele><time>2026-04-07T08:54:59Z</time></trkpt><trkpt lat="49.4484034903143" lon="2.9905000514653692"><ele>98.0</ele><time>2026-04-07T08:55:00Z</time></trkpt><trkpt lat="49.44831196062579" lon="2.9904271314819972"><ele>97.5</ele><time>2026-04-07T08:55:02Z</time></trkpt><trkpt lat="49.44822486112849" lon="2.9903888023580896"><ele>97.0</ele><time>2026-04-07T08:55:04Z</time></trkpt><trkpt lat="49.44816147519261" lon="2.990369249772551"><ele>96.5</ele><time>2026-04-07T08:55:05Z</time></trkpt><trkpt lat="49.44804993909521" lon="2.990326284902101"><ele>96.0</ele><time>2026-04-07T08:55:07Z</time></trkpt><trkpt lat="49.447937488753055" lon="2.990255467946822"><ele>96.0</ele><time>2026-04-07T08:55:09Z</time></trkpt><trkpt lat="49.44782857424617" lon="2.9902017430739956"><ele>96.0</ele><time>2026-04-07T08:55:11Z</time></trkpt><trkpt lat="49.447728679285355" lon="2.990138994312713"><ele>96.0</ele><time>2026-04-07T08:55:13Z</time></trkpt><trkpt lat="49.447639833763844" lon="2.99008410361095"><ele>96.0</ele><time>2026-04-07T08:55:15Z</time></trkpt><trkpt lat="49.44754290165418" lon="2.9900191058712613"><ele>96.0</ele><time>2026-04-07T08:55:17Z</time></trkpt><trkpt lat="49.4474589780967" lon="2.989947281131155"><ele>95.0</ele><time>2026-04-07T08:55:19Z</time></trkpt><trkpt lat="49.44737709169206" lon="2.9899001240665553"><ele>94.0</ele><time>2026-04-07T08:55:21Z</time></trkpt><trkpt lat="49.44730119729782" lon="2.9897928951996193"><ele>93.0</ele><time>2026-04-07T08:55:23Z</time></trkpt><trkpt lat="49.44720982762249" lon="2.989682415025885"><ele>92.0</ele><time>2026-04-07T08:55:25Z</time></trkpt><trkpt lat="49.44711968195824" lon="2.9895778348678532"><ele>91.0</ele><time>2026-04-07T08:55:27Z</time></trkpt><trkpt lat="49.44703516163485" lon="2.9894951560306384"><ele>91.0</ele><time>2026-04-07T08:55:29Z</time></trkpt><trkpt lat="49.44695899123438" lon="2.9893814819210505"><ele>91.0</ele><time>2026-04-07T08:55:31Z</time></trkpt><trkpt lat="49.44687372842707" lon="2.9893055983241754"><ele>91.0</ele><time>2026-04-07T08:55:33Z</time></trkpt><trkpt lat="49.446788744257994" lon="2.9892097506016246"><ele>91.0</ele><time>2026-04-07T08:55:35Z</time></trkpt><trkpt lat="49.4466948632775" lon="2.989099141677335"><ele>91.0</ele><time>2026-04-07T08:55:37Z</time></trkpt><trkpt lat="49.4466565543065" lon="2.989002108939614"><ele>93.6</ele><time>2026-04-07T08:55:39Z</time></trkpt><trkpt lat="49.446649372912454" lon="2.9888687147016917"><ele>96.19999999999999</ele><time>2026-04-07T08:55:41Z</time></trkpt><trkpt lat="49.44660563756527" lon="2.9886969668403034"><ele>98.80000000000001</ele><time>2026-04-07T08:55:43Z</time></trkpt><trkpt lat="49.44657588091549" lon="2.988539459343502"><ele>101.4</ele><time>2026-04-07T08:55:45Z</time></trkpt><trkpt lat="49.44656233782112" lon="2.988435564549661"><ele>104.0</ele><time>2026-04-07T08:55:46Z</time></trkpt><trkpt lat="49.44654825597228" lon="2.9883276931067875"><ele>104.6</ele><time>2026-04-07T08:55:47Z</time></trkpt><trkpt lat="49.44652384587745" lon="2.988169512225946"><ele>105.2</ele><time>2026-04-07T08:55:49Z</time></trkpt><trkpt lat="49.44651051694603" lon="2.9880025397781567"><ele>105.79999999999998</ele><time>2026-04-07T08:55:51Z</time></trkpt><trkpt lat="49.446443836571106" lon="2.987824795105394"><ele>106.39999999999999</ele><time>2026-04-07T08:55:53Z</time></trkpt><trkpt lat="49.446427443806684" lon="2.9877045605295742"><ele>107.0</ele><time>2026-04-07T08:55:54Z</time></trkpt><trkpt lat="49.4464180702341" lon="2.9875772217464185"><ele>107.14285714285715</ele><time>2026-04-07T08:55:55Z</time></trkpt><trkpt lat="49.44639874493031" lon="2.98747546351367"><ele>107.28571428571429</ele><time>2026-04-07T08:55:56Z</time></trkpt><trkpt lat="49.446371355879734" lon="2.987364612151376"><ele>107.42857142857143</ele><time>2026-04-07T08:55:57Z</time></trkpt><trkpt lat="49.44633432699334" lon="2.9872714947707464"><ele>107.57142857142858</ele><time>2026-04-07T08:55:58Z</time></trkpt><trkpt lat="49.446309621123895" lon="2.9871682511647495"><ele>107.71428571428571</ele><time>2026-04-07T08:55:59Z</time></trkpt><trkpt lat="49.44629989770865" lon="2.987068350781135"><ele>107.85714285714286</ele><time>2026-04-07T08:56:00Z</time></trkpt><trkpt lat="49.44629512882828" lon="2.986943008842998"><ele>108.0</ele><time>2026-04-07T08:56:01Z</time></trkpt><trkpt lat="49.4462839283044" lon="2.9867920766830576"><ele>107.5</ele><time>2026-04-07T08:56:02Z</time></trkpt><trkpt lat="49.44627016661597" lon="2.986580976551797"><ele>107.0</ele><time>2026-04-07T08:56:03Z</time></trkpt><trkpt lat="49.44626642211472" lon="2.9863262584652994"><ele>106.5</ele><time>2026-04-07T08:56:04Z</time></trkpt><trkpt lat="49.446244527445494" lon="2.986115509780661"><ele>106.0</ele><time>2026-04-07T08:56:05Z</time></trkpt><trkpt lat="49.44622389105572" lon="2.985951976286408"><ele>106.6</ele><time>2026-04-07T08:56:06Z</time></trkpt><trkpt lat="49.44619858694886" lon="2.985798505855565"><ele>107.19999999999999</ele><time>2026-04-07T08:56:07Z</time></trkpt><trkpt lat="49.446186595534314" lon="2.9856403128942177"><ele>107.80000000000001</ele><time>2026-04-07T08:56:08Z</time></trkpt><trkpt lat="49.446186092247956" lon="2.985471880295491"><ele>108.4</ele><time>2026-04-07T08:56:09Z</time></trkpt><trkpt lat="49.446191024771444" lon="2.985309798475325"><ele>109.0</ele><time>2026-04-07T08:56:10Z</time></trkpt><trkpt lat="49.446207477616056" lon="2.985146552230517"><ele>109.25</ele><time>2026-04-07T08:56:11Z</time></trkpt><trkpt lat="49.44622424827647" lon="2.984929468833991"><ele>109.5</ele><time>2026-04-07T08:56:12Z</time></trkpt><trkpt lat="49.446244542658214" lon="2.9847073742192842"><ele>109.75</ele><time>2026-04-07T08:56:13Z</time></trkpt><trkpt lat="49.446273324483755" lon="2.984546233271442"><ele>110.0</ele><time>2026-04-07T08:56:14Z</time></trkpt><trkpt lat="49.446312530376716" lon="2.9843963540646805"><ele>110.6</ele><time>2026-04-07T08:56:15Z</time></trkpt><trkpt lat="49.446359393346846" lon="2.984254761665405"><ele>111.2</ele><time>2026-04-07T08:56:16Z</time></trkpt><trkpt lat="49.446408716838725" lon="2.9841177255030478"><ele>111.80000000000001</ele><time>2026-04-07T08:56:17Z</time></trkpt><trkpt lat="49.44645815479241" lon="2.9839949821981673"><ele>112.4</ele><time>2026-04-07T08:56:18Z</time></trkpt><trkpt lat="49.44650752741003" lon="2.9838653869180867"><ele>113.0</ele><time>2026-04-07T08:56:19Z</time></trkpt><trkpt lat="49.44655726758559" lon="2.983709466306554"><ele>113.0</ele><time>2026-04-07T08:56:20Z</time></trkpt><trkpt lat="49.44661905724329" lon="2.9835522025675814"><ele>113.0</ele><time>2026-04-07T08:56:21Z</time></trkpt><trkpt lat="49.4466775052625" lon="2.9833828132541873"><ele>113.0</ele><time>2026-04-07T08:56:22Z</time></trkpt><trkpt lat="49.44674492552947" lon="2.9831882756917003"><ele>113.0</ele><time>2026-04-07T08:56:23Z</time></trkpt><trkpt lat="49.4468217531082" lon="2.9830185796348028"><ele>113.0</ele><time>2026-04-07T08:56:24Z</time></trkpt><trkpt lat="49.446906286937086" lon="2.9828266211352235"><ele>113.0</ele><time>2026-04-07T08:56:25Z</time></trkpt><trkpt lat="49.44694356993765" lon="2.9826897039983313"><ele>113.0</ele><time>2026-04-07T08:56:26Z</time></trkpt><trkpt lat="49.44698749000937" lon="2.9825199044197337"><ele>113.0</ele><time>2026-04-07T08:56:27Z</time></trkpt><trkpt lat="49.44704931380012" lon="2.9823141319005546"><ele>112.75</ele><time>2026-04-07T08:56:28Z</time></trkpt><trkpt lat="49.447120408807706" lon="2.9821321396995253"><ele>112.5</ele><time>2026-04-07T08:56:29Z</time></trkpt><trkpt lat="49.44719181678319" lon="2.98197721087674"><ele>112.25</ele><time>2026-04-07T08:56:30Z</time></trkpt><trkpt lat="49.44726176644157" lon="2.9818399875468646"><ele>112.0</ele><time>2026-04-07T08:56:31Z</time></trkpt><trkpt lat="49.4473239760348" lon="2.9817069150475235"><ele>112.19999999999999</ele><time>2026-04-07T08:56:32Z</time></trkpt><trkpt lat="49.447368843237406" lon="2.981568650737077"><ele>112.39999999999999</ele><time>2026-04-07T08:56:33Z</time></trkpt><trkpt lat="49.44741840391139" lon="2.9814300998076653"><ele>112.60000000000001</ele><time>2026-04-07T08:56:34Z</time></trkpt><trkpt lat="49.447474785944785" lon="2.9813011566320906"><ele>112.80000000000001</ele><time>2026-04-07T08:56:35Z</time></trkpt><trkpt lat="49.44752861024071" lon="2.9811741504016225"><ele>113.0</ele><time>2026-04-07T08:56:36Z</time></trkpt><trkpt lat="49.44757450404603" lon="2.981053507795275"><ele>113.0</ele><time>2026-04-07T08:56:37Z</time></trkpt><trkpt lat="49.44760097410924" lon="2.9809210433190305"><ele>113.0</ele><time>2026-04-07T08:56:38Z</time></trkpt><trkpt lat="49.447615894426136" lon="2.9807609238547736"><ele>113.0</ele><time>2026-04-07T08:56:39Z</time></trkpt><trkpt lat="49.447635978704696" lon="2.9805291922853967"><ele>113.0</ele><time>2026-04-07T08:56:40Z</time></trkpt><trkpt lat="49.44766408711698" lon="2.9803017225161272"><ele>112.60000000000001</ele><time>2026-04-07T08:56:41Z</time></trkpt><trkpt lat="49.44769255861618" lon="2.9801094642323807"><ele>112.20000000000002</ele><time>2026-04-07T08:56:42Z</time></trkpt><trkpt lat="49.44771073582389" lon="2.979944371555788"><ele>111.8</ele><time>2026-04-07T08:56:43Z</time></trkpt><trkpt lat="49.44771040204706" lon="2.979808555940883"><ele>111.4</ele><time>2026-04-07T08:56:44Z</time></trkpt><trkpt lat="49.44769449707706" lon="2.979666050156175"><ele>111.0</ele><time>2026-04-07T08:56:45Z</time></trkpt><trkpt lat="49.447676025300005" lon="2.9795260717880807"><ele>111.0</ele><time>2026-04-07T08:56:46Z</time></trkpt><trkpt lat="49.44765841067178" lon="2.9793974643254693"><ele>111.0</ele><time>2026-04-07T08:56:47Z</time></trkpt><trkpt lat="49.44763063449198" lon="2.9792791690612743"><ele>111.0</ele><time>2026-04-07T08:56:48Z</time></trkpt><trkpt lat="49.44760454454578" lon="2.979130076804507"><ele>111.0</ele><time>2026-04-07T08:56:49Z</time></trkpt><trkpt lat="49.4476049151608" lon="2.9788787194452127"><ele>111.0</ele><time>2026-04-07T08:56:50Z</time></trkpt><trkpt lat="49.44760784417189" lon="2.978654807438615"><ele>111.0</ele><time>2026-04-07T08:56:51Z</time></trkpt><trkpt lat="49.44755602678761" lon="2.978473144088444"><ele>111.0</ele><time>2026-04-07T08:56:53Z</time></trkpt><trkpt lat="49.44753298388491" lon="2.978359146959903"><ele>111.0</ele><time>2026-04-07T08:56:54Z</time></trkpt><trkpt lat="49.44753298336977" lon="2.9782329547533393"><ele>111.0</ele><time>2026-04-07T08:56:55Z</time></trkpt><trkpt lat="49.4475424040487" lon="2.978102699128332"><ele>111.0</ele><time>2026-04-07T08:56:56Z</time></trkpt><trkpt lat="49.447556335473024" lon="2.977952531824445"><ele>110.8</ele><time>2026-04-07T08:56:57Z</time></trkpt><trkpt lat="49.44755447942721" lon="2.9778019148929147"><ele>110.6</ele><time>2026-04-07T08:56:58Z</time></trkpt><trkpt lat="49.44755227183281" lon="2.9776281939794793"><ele>110.4</ele><time>2026-04-07T08:56:59Z</time></trkpt><trkpt lat="49.4475186679864" lon="2.977473781776461"><ele>110.2</ele><time>2026-04-07T08:57:00Z</time></trkpt><trkpt lat="49.447492707770735" lon="2.9773474445029926"><ele>110.0</ele><time>2026-04-07T08:57:01Z</time></trkpt><trkpt lat="49.44759648238176" lon="2.976939722212126"><ele>109.99999999999999</ele><time>2026-04-07T08:57:03Z</time></trkpt><trkpt lat="49.44760637714441" lon="2.976837248879718"><ele>110.0</ele><time>2026-04-07T08:57:04Z</time></trkpt><trkpt lat="49.447647441396335" lon="2.9766924961586048"><ele>110.0</ele><time>2026-04-07T08:57:06Z</time></trkpt><trkpt lat="49.44773366806703" lon="2.9766913395430974"><ele>110.0</ele><time>2026-04-07T08:57:09Z</time></trkpt><trkpt lat="49.44780397021135" lon="2.9767373603826353"><ele>109.99999999999999</ele><time>2026-04-07T08:57:10Z</time></trkpt><trkpt lat="49.447898288841024" lon="2.9767740567124368"><ele>110.0</ele><time>2026-04-07T08:57:11Z</time></trkpt><trkpt lat="49.447987345869194" lon="2.976795883248055"><ele>109.99999999999999</ele><time>2026-04-07T08:57:12Z</time></trkpt><trkpt lat="49.44806040222184" lon="2.9768132469988418"><ele>110.0</ele><time>2026-04-07T08:57:13Z</time></trkpt><trkpt lat="49.44812440684503" lon="2.976841613425643"><ele>110.0</ele><time>2026-04-07T08:57:14Z</time></trkpt><trkpt lat="49.44819116292012" lon="2.976875970022151"><ele>110.0</ele><time>2026-04-07T08:57:15Z</time></trkpt><trkpt lat="49.448260053369474" lon="2.9769219672786593"><ele>110.0</ele><time>2026-04-07T08:57:16Z</time></trkpt><trkpt lat="49.448322737475685" lon="2.97697881777066"><ele>109.99999999999999</ele><time>2026-04-07T08:57:17Z</time></trkpt><trkpt lat="49.44837941569701" lon="2.9770336587465462"><ele>110.0</ele><time>2026-04-07T08:57:18Z</time></trkpt><trkpt lat="49.44844754632692" lon="2.9770912925921813"><ele>109.99999999999999</ele><time>2026-04-07T08:57:19Z</time></trkpt><trkpt lat="49.448503972649775" lon="2.9771678354809774"><ele>110.0</ele><time>2026-04-07T08:57:20Z</time></trkpt><trkpt lat="49.448559719438954" lon="2.97724414523622"><ele>110.0</ele><time>2026-04-07T08:57:21Z</time></trkpt><trkpt lat="49.44861852798426" lon="2.977316614256338"><ele>110.0</ele><time>2026-04-07T08:57:22Z</time></trkpt><trkpt lat="49.448674401159934" lon="2.9773997881341026"><ele>109.99999999999999</ele><time>2026-04-07T08:57:23Z</time></trkpt><trkpt lat="49.44873454038527" lon="2.977486103184203"><ele>110.0</ele><time>2026-04-07T08:57:24Z</time></trkpt><trkpt lat="49.44880978399045" lon="2.977566135824937"><ele>110.49999999999999</ele><time>2026-04-07T08:57:25Z</time></trkpt><trkpt lat="49.44887596593585" lon="2.977656277577633"><ele>111.0</ele><time>2026-04-07T08:57:26Z</time></trkpt><trkpt lat="49.44894526586283" lon="2.977757000451805"><ele>111.5</ele><time>2026-04-07T08:57:27Z</time></trkpt><trkpt lat="49.44901108127181" lon="2.9778496444241527"><ele>112.0</ele><time>2026-04-07T08:57:28Z</time></trkpt><trkpt lat="49.44907398773784" lon="2.9779365069065697"><ele>112.49999999999999</ele><time>2026-04-07T08:57:29Z</time></trkpt><trkpt lat="49.449141344864344" lon="2.97801692552127"><ele>113.0</ele><time>2026-04-07T08:57:30Z</time></trkpt><trkpt lat="49.44921472215519" lon="2.978103466520718"><ele>113.0</ele><time>2026-04-07T08:57:31Z</time></trkpt><trkpt lat="49.449288036761175" lon="2.9781944033863303"><ele>113.00000000000001</ele><time>2026-04-07T08:57:32Z</time></trkpt><trkpt lat="49.44937076305101" lon="2.978295273249695"><ele>113.00000000000001</ele><time>2026-04-07T08:57:33Z</time></trkpt><trkpt lat="49.449465032635906" lon="2.9783990008312724"><ele>113.0</ele><time>2026-04-07T08:57:34Z</time></trkpt><trkpt lat="49.44952981952675" lon="2.9784865870702286"><ele>113.0</ele><time>2026-04-07T08:57:35Z</time></trkpt><trkpt lat="49.44959463781215" lon="2.9785861144048553"><ele>113.4</ele><time>2026-04-07T08:57:36Z</time></trkpt><trkpt lat="49.44966735301042" lon="2.9786882934937164"><ele>113.80000000000001</ele><time>2026-04-07T08:57:37Z</time></trkpt><trkpt lat="49.449756045116736" lon="2.9788009313881005"><ele>114.2</ele><time>2026-04-07T08:57:38Z</time></trkpt><trkpt lat="49.44983685409287" lon="2.9789181440411165"><ele>114.6</ele><time>2026-04-07T08:57:39Z</time></trkpt><trkpt lat="49.44992861320683" lon="2.9790280288657045"><ele>115.0</ele><time>2026-04-07T08:57:40Z</time></trkpt><trkpt lat="49.450014849303315" lon="2.979143741118582"><ele>114.25</ele><time>2026-04-07T08:57:41Z</time></trkpt><trkpt lat="49.450102607898465" lon="2.979256257046668"><ele>113.5</ele><time>2026-04-07T08:57:42Z</time></trkpt><trkpt lat="49.450219244637644" lon="2.979407415894858"><ele>112.75</ele><time>2026-04-07T08:57:43Z</time></trkpt><trkpt lat="49.45032597167283" lon="2.9795744520092757"><ele>112.0</ele><time>2026-04-07T08:57:44Z</time></trkpt><trkpt lat="49.45042596747565" lon="2.979760056440156"><ele>112.83333333333334</ele><time>2026-04-07T08:57:45Z</time></trkpt><trkpt lat="49.45049264322481" lon="2.9797839987542356"><ele>113.66666666666667</ele><time>2026-04-07T08:57:46Z</time></trkpt><trkpt lat="49.4505641072878" lon="2.979869065636903"><ele>114.5</ele><time>2026-04-07T08:57:47Z</time></trkpt><trkpt lat="49.450618261688746" lon="2.9799330693243578"><ele>115.33333333333334</ele><time>2026-04-07T08:57:48Z</time></trkpt><trkpt lat="49.450696653718026" lon="2.9799870727883158"><ele>116.16666666666667</ele><time>2026-04-07T08:57:50Z</time></trkpt><trkpt lat="49.45062615366331" lon="2.979958397438458"><ele>117.0</ele><time>2026-04-07T08:57:59Z</time></trkpt><trkpt lat="49.45059529307903" lon="2.9798516088443785"><ele>117.0</ele><time>2026-04-07T08:58:01Z</time></trkpt><trkpt lat="49.45062801062796" lon="2.979697798816009"><ele>116.99999999999999</ele><time>2026-04-07T08:58:03.001Z</time></trkpt><trkpt lat="49.450672388061854" lon="2.979575037156613"><ele>116.99999999999999</ele><time>2026-04-07T08:58:04.001Z</time></trkpt><trkpt lat="49.45070110219697" lon="2.979459310381625"><ele>117.0</ele><time>2026-04-07T08:58:05.001Z</time></trkpt><trkpt lat="49.45073630874404" lon="2.9793054575587186"><ele>117.0</ele><time>2026-04-07T08:58:06.001Z</time></trkpt><trkpt lat="49.450768652496464" lon="2.9791394827646758"><ele>117.8</ele><time>2026-04-07T08:58:07.001Z</time></trkpt><trkpt lat="49.450810409081946" lon="2.978941941722475"><ele>118.6</ele><time>2026-04-07T08:58:08.001Z</time></trkpt><trkpt lat="49.45084289293631" lon="2.9787911068848243"><ele>119.39999999999999</ele><time>2026-04-07T08:58:09.001Z</time></trkpt><trkpt lat="49.450874769944285" lon="2.9786524151993556"><ele>120.19999999999999</ele><time>2026-04-07T08:58:10.001Z</time></trkpt><trkpt lat="49.45090250761807" lon="2.9785151541368684"><ele>121.0</ele><time>2026-04-07T08:58:11.001Z</time></trkpt><trkpt lat="49.45093791304166" lon="2.9783881031156225"><ele>121.4</ele><time>2026-04-07T08:58:12.001Z</time></trkpt><trkpt lat="49.45095714719118" lon="2.9782636048107127"><ele>121.8</ele><time>2026-04-07T08:58:13.001Z</time></trkpt><trkpt lat="49.45097035918248" lon="2.9781281657209475"><ele>122.20000000000002</ele><time>2026-04-07T08:58:14.001Z</time></trkpt><trkpt lat="49.45099334469306" lon="2.978003476004194"><ele>122.60000000000001</ele><time>2026-04-07T08:58:15.001Z</time></trkpt><trkpt lat="49.451023981640404" lon="2.977870275220495"><ele>123.0</ele><time>2026-04-07T08:58:16.001Z</time></trkpt><trkpt lat="49.45105592088082" lon="2.9777114659797435"><ele>123.0</ele><time>2026-04-07T08:58:17.001Z</time></trkpt><trkpt lat="49.451089582401856" lon="2.977531989662317"><ele>123.00000000000001</ele><time>2026-04-07T08:58:18.001Z</time></trkpt><trkpt lat="49.451135027640895" lon="2.9773763730121776"><ele>123.00000000000001</ele><time>2026-04-07T08:58:19.001Z</time></trkpt><trkpt lat="49.45117531854459" lon="2.977236858499582"><ele>123.0</ele><time>2026-04-07T08:58:20.001Z</time></trkpt><trkpt lat="49.45121669032772" lon="2.977073801881149"><ele>123.0</ele><time>2026-04-07T08:58:21.001Z</time></trkpt><trkpt lat="49.45124794061674" lon="2.9768599871288206"><ele>123.25</ele><time>2026-04-07T08:58:22.001Z</time></trkpt><trkpt lat="49.4512557247558" lon="2.976688211744822"><ele>123.5</ele><time>2026-04-07T08:58:23.001Z</time></trkpt><trkpt lat="49.45130906412832" lon="2.9765195522358323"><ele>123.75</ele><time>2026-04-07T08:58:24.001Z</time></trkpt><trkpt lat="49.45140243928384" lon="2.9763445287743173"><ele>124.0</ele><time>2026-04-07T08:58:25.001Z</time></trkpt><trkpt lat="49.45140559334468" lon="2.976195068551377"><ele>123.83333333333334</ele><time>2026-04-07T08:58:26Z</time></trkpt><trkpt lat="49.45144502398768" lon="2.976080145432768"><ele>123.66666666666667</ele><time>2026-04-07T08:58:27Z</time></trkpt><trkpt lat="49.45146594153268" lon="2.975963844711781"><ele>123.5</ele><time>2026-04-07T08:58:28Z</time></trkpt><trkpt lat="49.45149343104547" lon="2.9758414843567973"><ele>123.33333333333334</ele><time>2026-04-07T08:58:29Z</time></trkpt><trkpt lat="49.451514825958284" lon="2.9757409176859744"><ele>123.16666666666667</ele><time>2026-04-07T08:58:30Z</time></trkpt><trkpt lat="49.451546812236785" lon="2.975618487449506"><ele>123.0</ele><time>2026-04-07T08:58:31Z</time></trkpt><trkpt lat="49.45155870702411" lon="2.975491543559128"><ele>123.0</ele><time>2026-04-07T08:58:32Z</time></trkpt><trkpt lat="49.45158998054398" lon="2.975324742018861"><ele>123.00000000000001</ele><time>2026-04-07T08:58:34Z</time></trkpt><trkpt lat="49.451624424533335" lon="2.975226062429776"><ele>123.00000000000001</ele><time>2026-04-07T08:58:36Z</time></trkpt><trkpt lat="49.45171567710217" lon="2.9751109086923795"><ele>123.0</ele><time>2026-04-07T08:58:39Z</time></trkpt><trkpt lat="49.451763128154795" lon="2.9750410087555905"><ele>123.0</ele><time>2026-04-07T08:58:40Z</time></trkpt><trkpt lat="49.451820769443074" lon="2.974946514417848"><ele>123.33333333333334</ele><time>2026-04-07T08:58:41Z</time></trkpt><trkpt lat="49.45187815923913" lon="2.9748634292572853"><ele>123.66666666666667</ele><time>2026-04-07T08:58:42Z</time></trkpt><trkpt lat="49.451893246765415" lon="2.9747291383574317"><ele>124.0</ele><time>2026-04-07T08:58:44Z</time></trkpt><trkpt lat="49.4523110489681" lon="2.975047323780572"><ele>124.5</ele><time>2026-04-07T08:58:45Z</time></trkpt><trkpt lat="49.45241398183494" lon="2.975018613203177"><ele>125.0</ele><time>2026-04-07T08:58:46Z</time></trkpt><trkpt lat="49.452532487539116" lon="2.9749980114572154"><ele>125.5</ele><time>2026-04-07T08:58:47Z</time></trkpt><trkpt lat="49.45268617163205" lon="2.9749615261286384"><ele>126.0</ele><time>2026-04-07T08:58:48Z</time></trkpt><trkpt lat="49.45283346667282" lon="2.9749342350568853"><ele>126.0</ele><time>2026-04-07T08:58:49Z</time></trkpt><trkpt lat="49.45295378937816" lon="2.9749264826677853"><ele>126.0</ele><time>2026-04-07T08:58:50Z</time></trkpt><trkpt lat="49.453068982974926" lon="2.9748965780557164"><ele>126.0</ele><time>2026-04-07T08:58:51Z</time></trkpt><trkpt lat="49.453202045470256" lon="2.9748443125135617"><ele>126.0</ele><time>2026-04-07T08:58:52Z</time></trkpt><trkpt lat="49.45333810207824" lon="2.9748082580185975"><ele>125.6</ele><time>2026-04-07T08:58:53Z</time></trkpt><trkpt lat="49.45345222646855" lon="2.974761842816702"><ele>125.19999999999999</ele><time>2026-04-07T08:58:54Z</time></trkpt><trkpt lat="49.45355097228958" lon="2.9747331619888464"><ele>124.80000000000001</ele><time>2026-04-07T08:58:55Z</time></trkpt><trkpt lat="49.45364644218593" lon="2.974724727104674"><ele>124.4</ele><time>2026-04-07T08:58:56Z</time></trkpt><trkpt lat="49.45374575909457" lon="2.9747030804525694"><ele>124.0</ele><time>2026-04-07T08:58:57Z</time></trkpt><trkpt lat="49.453853087493016" lon="2.974673653655412"><ele>123.50000000000001</ele><time>2026-04-07T08:58:58Z</time></trkpt><trkpt lat="49.45394668788232" lon="2.974629743309254"><ele>123.0</ele><time>2026-04-07T08:58:59Z</time></trkpt><trkpt lat="49.45404014974104" lon="2.9745862584575065"><ele>122.5</ele><time>2026-04-07T08:59:00Z</time></trkpt><trkpt lat="49.45411659573328" lon="2.974577771227528"><ele>122.0</ele><time>2026-04-07T08:59:01Z</time></trkpt><trkpt lat="49.454203639731105" lon="2.974582025289283"><ele>121.50000000000001</ele><time>2026-04-07T08:59:02Z</time></trkpt><trkpt lat="49.45429114071742" lon="2.974569765997887"><ele>121.0</ele><time>2026-04-07T08:59:03Z</time></trkpt><trkpt lat="49.4543872536724" lon="2.974544800926803"><ele>121.0</ele><time>2026-04-07T08:59:04Z</time></trkpt><trkpt lat="49.45448921766647" lon="2.9745049742661154"><ele>121.0</ele><time>2026-04-07T08:59:05Z</time></trkpt><trkpt lat="49.45459951021277" lon="2.974462596895806"><ele>121.0</ele><time>2026-04-07T08:59:06Z</time></trkpt><trkpt lat="49.45471464950714" lon="2.9744205127206813"><ele>121.0</ele><time>2026-04-07T08:59:07Z</time></trkpt><trkpt lat="49.4548330584753" lon="2.974393994816973"><ele>120.75</ele><time>2026-04-07T08:59:08Z</time></trkpt><trkpt lat="49.454949312990614" lon="2.9743632352078824"><ele>120.5</ele><time>2026-04-07T08:59:09Z</time></trkpt><trkpt lat="49.45506279035505" lon="2.974326129314807"><ele>120.25</ele><time>2026-04-07T08:59:10Z</time></trkpt><trkpt lat="49.45517906632756" lon="2.974289410338935"><ele>120.0</ele><time>2026-04-07T08:59:11Z</time></trkpt><trkpt lat="49.455292313903975" lon="2.9742613310088255"><ele>120.0</ele><time>2026-04-07T08:59:12Z</time></trkpt><trkpt lat="49.455395249716354" lon="2.974242342256054"><ele>120.0</ele><time>2026-04-07T08:59:13Z</time></trkpt><trkpt lat="49.45550061315775" lon="2.974202314783862"><ele>120.0</ele><time>2026-04-07T08:59:14Z</time></trkpt><trkpt lat="49.455599478753875" lon="2.974166524244747"><ele>120.0</ele><time>2026-04-07T08:59:15Z</time></trkpt><trkpt lat="49.45569020569264" lon="2.9741301855694102"><ele>120.0</ele><time>2026-04-07T08:59:16Z</time></trkpt><trkpt lat="49.45578721727656" lon="2.9741068211958233"><ele>118.75</ele><time>2026-04-07T08:59:17Z</time></trkpt><trkpt lat="49.45590942889129" lon="2.974075226720745"><ele>117.5</ele><time>2026-04-07T08:59:18Z</time></trkpt><trkpt lat="49.45606439933096" lon="2.9740364456915294"><ele>116.25</ele><time>2026-04-07T08:59:19Z</time></trkpt><trkpt lat="49.456182505025204" lon="2.974016100228362"><ele>115.0</ele><time>2026-04-07T08:59:20Z</time></trkpt><trkpt lat="49.45626967189744" lon="2.973971539949544"><ele>115.0</ele><time>2026-04-07T08:59:21Z</time></trkpt><trkpt lat="49.45637136717553" lon="2.9739316873049484"><ele>115.0</ele><time>2026-04-07T08:59:22Z</time></trkpt><trkpt lat="49.45647973248408" lon="2.9738806656048147"><ele>115.0</ele><time>2026-04-07T08:59:23Z</time></trkpt><trkpt lat="49.45656034305432" lon="2.9738208366164303"><ele>115.0</ele><time>2026-04-07T08:59:23.999Z</time></trkpt><trkpt lat="49.45684639658665" lon="2.973828975058146"><ele>115.0</ele><time>2026-04-07T08:59:24.999Z</time></trkpt><trkpt lat="49.456967491076384" lon="2.973791159579056"><ele>115.0</ele><time>2026-04-07T08:59:25.999Z</time></trkpt><trkpt lat="49.45707158844507" lon="2.9737591596806743"><ele>115.0</ele><time>2026-04-07T08:59:26.999Z</time></trkpt><trkpt lat="49.457154697665686" lon="2.9737357961761317"><ele>115.0</ele><time>2026-04-07T08:59:27.999Z</time></trkpt><trkpt lat="49.45722749586064" lon="2.9737166751864046"><ele>115.0</ele><time>2026-04-07T08:59:28.999Z</time></trkpt><trkpt lat="49.45731343131843" lon="2.9736986338829596"><ele>114.6</ele><time>2026-04-07T08:59:30.999Z</time></trkpt><trkpt lat="49.457289374472204" lon="2.973789327208948"><ele>114.2</ele><time>2026-04-07T08:59:38.999Z</time></trkpt><trkpt lat="49.45727370010555" lon="2.973944979989316"><ele>113.80000000000001</ele><time>2026-04-07T08:59:40.999Z</time></trkpt><trkpt lat="49.45727224435268" lon="2.9740570241580886"><ele>113.4</ele><time>2026-04-07T08:59:41.999Z</time></trkpt><trkpt lat="49.457279856406686" lon="2.9742127144849473"><ele>113.0</ele><time>2026-04-07T08:59:42.999Z</time></trkpt><trkpt lat="49.457288161872086" lon="2.974418623247403"><ele>113.0</ele><time>2026-04-07T08:59:43.999Z</time></trkpt><trkpt lat="49.45729323791282" lon="2.974643902862766"><ele>113.0</ele><time>2026-04-07T08:59:44.999Z</time></trkpt><trkpt lat="49.45731767729462" lon="2.9748557820193473"><ele>113.0</ele><time>2026-04-07T08:59:45.999Z</time></trkpt><trkpt lat="49.45733623283153" lon="2.9751354251267355"><ele>114.33333333333333</ele><time>2026-04-07T08:59:46.999Z</time></trkpt><trkpt lat="49.45735247348888" lon="2.9754118208148843"><ele>115.66666666666666</ele><time>2026-04-07T08:59:47.999Z</time></trkpt><trkpt lat="49.457365129199445" lon="2.9756377734249124"><ele>117.0</ele><time>2026-04-07T08:59:48.999Z</time></trkpt><trkpt lat="49.457370520112654" lon="2.9758381865427124"><ele>118.0</ele><time>2026-04-07T08:59:49.999Z</time></trkpt><trkpt lat="49.45738454585606" lon="2.9760347149046646"><ele>119.0</ele><time>2026-04-07T08:59:50.999Z</time></trkpt><trkpt lat="49.45740527653835" lon="2.9762119154569837"><ele>120.0</ele><time>2026-04-07T08:59:51.999Z</time></trkpt><trkpt lat="49.45741986004854" lon="2.97637278742201"><ele>121.0</ele><time>2026-04-07T08:59:52.999Z</time></trkpt><trkpt lat="49.45743280607633" lon="2.9765234088223873"><ele>121.00000000000001</ele><time>2026-04-07T08:59:53.999Z</time></trkpt><trkpt lat="49.45744107237131" lon="2.976655066434265"><ele>121.0</ele><time>2026-04-07T08:59:54.999Z</time></trkpt><trkpt lat="49.457457306197426" lon="2.9767574750818024"><ele>121.0</ele><time>2026-04-07T08:59:55.999Z</time></trkpt><trkpt lat="49.457527125280656" lon="2.9768702588586824"><ele>121.0</ele><time>2026-04-07T08:59:57.999Z</time></trkpt><trkpt lat="49.4575953854968" lon="2.9768986419212253"><ele>121.00000000000001</ele><time>2026-04-07T08:59:58.999Z</time></trkpt><trkpt lat="49.457651697163094" lon="2.976951742992556"><ele>121.0</ele><time>2026-04-07T08:59:59.999Z</time></trkpt><trkpt lat="49.45770208218274" lon="2.977053477049659"><ele>121.00000000000001</ele><time>2026-04-07T09:00:00.999Z</time></trkpt><trkpt lat="49.45775452246944" lon="2.9771482463477725"><ele>121.0</ele><time>2026-04-07T09:00:01.999Z</time></trkpt><trkpt lat="49.457789756504404" lon="2.9772446746449535"><ele>121.0</ele><time>2026-04-07T09:00:02.999Z</time></trkpt><trkpt lat="49.45782383604474" lon="2.9773574278168806"><ele>121.0</ele><time>2026-04-07T09:00:03.999Z</time></trkpt><trkpt lat="49.45787416093194" lon="2.9774839983001726"><ele>121.00000000000001</ele><time>2026-04-07T09:00:04.999Z</time></trkpt><trkpt lat="49.457925103820884" lon="2.9776087854150033"><ele>121.0</ele><time>2026-04-07T09:00:05.999Z</time></trkpt><trkpt lat="49.45798095667445" lon="2.9777094920364062"><ele>121.00000000000001</ele><time>2026-04-07T09:00:06.999Z</time></trkpt><trkpt lat="49.45804662212578" lon="2.977766952313639"><ele>121.0</ele><time>2026-04-07T09:00:08Z</time></trkpt><trkpt lat="49.45812277408506" lon="2.977794885733958"><ele>121.0</ele><time>2026-04-07T09:00:09Z</time></trkpt><trkpt lat="49.45818292749826" lon="2.977865233992181"><ele>121.0</ele><time>2026-04-07T09:00:10Z</time></trkpt><trkpt lat="49.458230092042214" lon="2.977930411293549"><ele>121.00000000000001</ele><time>2026-04-07T09:00:11Z</time></trkpt><trkpt lat="49.45832746352609" lon="2.9780330518507094"><ele>121.0</ele><time>2026-04-07T09:00:13Z</time></trkpt><trkpt lat="49.45839127451151" lon="2.9781565534569103"><ele>121.00000000000001</ele><time>2026-04-07T09:00:15Z</time></trkpt><trkpt lat="49.45842886870377" lon="2.978273490008852"><ele>121.0</ele><time>2026-04-07T09:00:17Z</time></trkpt><trkpt lat="49.45849575681799" lon="2.9782652692116742"><ele>121.0</ele><time>2026-04-07T09:00:22Z</time></trkpt><trkpt lat="49.458490848361734" lon="2.9781344865156316"><ele>121.0</ele><time>2026-04-07T09:00:25Z</time></trkpt><trkpt lat="49.45846438815565" lon="2.9779953617101245"><ele>121.00000000000001</ele><time>2026-04-07T09:00:27Z</time></trkpt><trkpt lat="49.458457220436706" lon="2.977816605536759"><ele>121.0</ele><time>2026-04-07T09:00:29Z</time></trkpt><trkpt lat="49.458471013703026" lon="2.9777220378298885"><ele>121.0</ele><time>2026-04-07T09:00:30Z</time></trkpt><trkpt lat="49.458465563054" lon="2.9775755440175256"><ele>121.0</ele><time>2026-04-07T09:00:32Z</time></trkpt><trkpt lat="49.45844469670236" lon="2.9774425839232292"><ele>121.0</ele><time>2026-04-07T09:00:34Z</time></trkpt><trkpt lat="49.458464514441296" lon="2.9772880693175185"><ele>121.0</ele><time>2026-04-07T09:00:36Z</time></trkpt><trkpt lat="49.4585330292312" lon="2.977140389339524"><ele>121.0</ele><time>2026-04-07T09:00:38Z</time></trkpt><trkpt lat="49.45857125858572" lon="2.9770573506438134"><ele>120.4</ele><time>2026-04-07T09:00:38.999Z</time></trkpt><trkpt lat="49.45865107927327" lon="2.9769018375924703"><ele>119.8</ele><time>2026-04-07T09:00:40.999Z</time></trkpt><trkpt lat="49.458712785282614" lon="2.9767444459844223"><ele>119.20000000000002</ele><time>2026-04-07T09:00:42.999Z</time></trkpt><trkpt lat="49.45872757376708" lon="2.9766442107052726"><ele>118.60000000000001</ele><time>2026-04-07T09:00:43.999Z</time></trkpt><trkpt lat="49.45877461699403" lon="2.9764607893998596"><ele>118.0</ele><time>2026-04-07T09:00:45.999Z</time></trkpt><trkpt lat="49.458840778090476" lon="2.9763077650978853"><ele>116.60000000000001</ele><time>2026-04-07T09:00:47.999Z</time></trkpt><trkpt lat="49.45887806663273" lon="2.9762238593876535"><ele>115.20000000000002</ele><time>2026-04-07T09:00:48.999Z</time></trkpt><trkpt lat="49.45892417183548" lon="2.9760757394976025"><ele>113.8</ele><time>2026-04-07T09:00:50.999Z</time></trkpt><trkpt lat="49.45895211348358" lon="2.975933614353134"><ele>112.4</ele><time>2026-04-07T09:00:52.999Z</time></trkpt><trkpt lat="49.45903760106777" lon="2.9757817854080235"><ele>111.0</ele><time>2026-04-07T09:00:54.999Z</time></trkpt><trkpt lat="49.45908718430042" lon="2.975692036160157"><ele>109.4</ele><time>2026-04-07T09:00:55.999Z</time></trkpt><trkpt lat="49.4591670615712" lon="2.975556122678538"><ele>107.8</ele><time>2026-04-07T09:00:57.999Z</time></trkpt><trkpt lat="49.45919828784359" lon="2.9754569677567133"><ele>106.2</ele><time>2026-04-07T09:00:58.999Z</time></trkpt><trkpt lat="49.45924108685505" lon="2.9753362884226484"><ele>104.60000000000001</ele><time>2026-04-07T09:00:59.999Z</time></trkpt><trkpt lat="49.459283267134325" lon="2.975225583147775"><ele>103.0</ele><time>2026-04-07T09:01:00.999Z</time></trkpt><trkpt lat="49.45931485117932" lon="2.9751021985034347"><ele>102.99999999999999</ele><time>2026-04-07T09:01:01.999Z</time></trkpt><trkpt lat="49.45934549283203" lon="2.9750003895102783"><ele>103.0</ele><time>2026-04-07T09:01:02.999Z</time></trkpt><trkpt lat="49.45938757684502" lon="2.9749009541308347"><ele>103.0</ele><time>2026-04-07T09:01:04.999Z</time></trkpt><trkpt lat="49.459431006686614" lon="2.9748200185445053"><ele>103.0</ele><time>2026-04-07T09:01:06.999Z</time></trkpt><trkpt lat="49.45950118755485" lon="2.9748386939426834"><ele>103.0</ele><time>2026-04-07T09:01:10.999Z</time></trkpt><trkpt lat="49.4594294805159" lon="2.9748844765895353"><ele>102.99999999999999</ele><time>2026-04-07T09:01:14.999Z</time></trkpt><trkpt lat="49.45935906622788" lon="2.9749450194188696"><ele>103.0</ele><time>2026-04-07T09:01:16.999Z</time></trkpt><trkpt lat="49.45934253458098" lon="2.9750619168391874"><ele>103.0</ele><time>2026-04-07T09:01:18.999Z</time></trkpt><trkpt lat="49.45944261620907" lon="2.97511889849662"><ele>103.0</ele><time>2026-04-07T09:01:20.999Z</time></trkpt><trkpt lat="49.45957324827146" lon="2.975167054037436"><ele>103.0</ele><time>2026-04-07T09:01:22.999Z</time></trkpt><trkpt lat="49.45963438758889" lon="2.9752217378324484"><ele>103.0</ele><time>2026-04-07T09:01:24.999Z</time></trkpt><trkpt lat="49.45985881015206" lon="2.9754005000656853"><ele>104.4</ele><time>2026-04-07T09:01:25.999Z</time></trkpt><trkpt lat="49.45992715433061" lon="2.975444184930539"><ele>105.80000000000001</ele><time>2026-04-07T09:01:26.999Z</time></trkpt><trkpt lat="49.459998555537354" lon="2.9754919302123874"><ele>107.2</ele><time>2026-04-07T09:01:27.999Z</time></trkpt><trkpt lat="49.46007495132791" lon="2.9755336500911604"><ele>108.6</ele><time>2026-04-07T09:01:28.999Z</time></trkpt><trkpt lat="49.46014526445736" lon="2.975564954799557"><ele>110.0</ele><time>2026-04-07T09:01:29.999Z</time></trkpt><trkpt lat="49.460286557165304" lon="2.9756621344349115"><ele>110.0</ele><time>2026-04-07T09:01:31.999Z</time></trkpt><trkpt lat="49.460359675532445" lon="2.9757066221699398"><ele>110.0</ele><time>2026-04-07T09:01:32.999Z</time></trkpt><trkpt lat="49.46044887747064" lon="2.975763952098858"><ele>110.0</ele><time>2026-04-07T09:01:33.999Z</time></trkpt><trkpt lat="49.46057545238928" lon="2.9758446950353608"><ele>110.0</ele><time>2026-04-07T09:01:34.999Z</time></trkpt><trkpt lat="49.4606667490643" lon="2.9759008120917585"><ele>110.0</ele><time>2026-04-07T09:01:35.999Z</time></trkpt><trkpt lat="49.46075608835375" lon="2.9759695022777035"><ele>110.8</ele><time>2026-04-07T09:01:36.999Z</time></trkpt><trkpt lat="49.46083991915185" lon="2.976036875627795"><ele>111.6</ele><time>2026-04-07T09:01:37.999Z</time></trkpt><trkpt lat="49.46092934684265" lon="2.976096168019849"><ele>112.4</ele><time>2026-04-07T09:01:38.999Z</time></trkpt><trkpt lat="49.46101170321843" lon="2.976152461228232"><ele>113.2</ele><time>2026-04-07T09:01:39.999Z</time></trkpt><trkpt lat="49.461103224349905" lon="2.976209843405705"><ele>114.0</ele><time>2026-04-07T09:01:40.999Z</time></trkpt><trkpt lat="49.46118882199055" lon="2.976256814571256"><ele>114.0</ele><time>2026-04-07T09:01:41.999Z</time></trkpt><trkpt lat="49.46126717866553" lon="2.97629875370203"><ele>114.0</ele><time>2026-04-07T09:01:42.999Z</time></trkpt><trkpt lat="49.46134272851361" lon="2.9763432157290794"><ele>114.0</ele><time>2026-04-07T09:01:43.999Z</time></trkpt><trkpt lat="49.46141579616029" lon="2.9763859584830654"><ele>114.0</ele><time>2026-04-07T09:01:44.999Z</time></trkpt><trkpt lat="49.46148405199023" lon="2.97642707670894"><ele>114.0</ele><time>2026-04-07T09:01:45.999Z</time></trkpt><trkpt lat="49.46155188408387" lon="2.976478874400109"><ele>114.0</ele><time>2026-04-07T09:01:46.999Z</time></trkpt><trkpt lat="49.4616278411694" lon="2.976523011466445"><ele>111.83333333333333</ele><time>2026-04-07T09:01:47.999Z</time></trkpt><trkpt lat="49.46169990895632" lon="2.9765741837556217"><ele>109.66666666666666</ele><time>2026-04-07T09:01:48.999Z</time></trkpt><trkpt lat="49.46175655042695" lon="2.9766224801134458"><ele>107.5</ele><time>2026-04-07T09:01:49.999Z</time></trkpt><trkpt lat="49.46184445320953" lon="2.9766648481093476"><ele>105.33333333333333</ele><time>2026-04-07T09:01:50.999Z</time></trkpt><trkpt lat="49.46192678716913" lon="2.976696222231458"><ele>103.16666666666666</ele><time>2026-04-07T09:01:51.999Z</time></trkpt><trkpt lat="49.462012420999734" lon="2.976743291648461"><ele>101.0</ele><time>2026-04-07T09:01:52.999Z</time></trkpt><trkpt lat="49.46207861299108" lon="2.9767948621971536"><ele>99.49999999999999</ele><time>2026-04-07T09:01:53.999Z</time></trkpt><trkpt lat="49.462154728694145" lon="2.9768460605092013"><ele>98.0</ele><time>2026-04-07T09:01:54.999Z</time></trkpt><trkpt lat="49.462229496495894" lon="2.976904694562855"><ele>96.5</ele><time>2026-04-07T09:01:55.999Z</time></trkpt><trkpt lat="49.462308347889795" lon="2.9769633189572278"><ele>95.0</ele><time>2026-04-07T09:01:56.999Z</time></trkpt><trkpt lat="49.46239427836261" lon="2.9770050519234195"><ele>93.5</ele><time>2026-04-07T09:01:57.999Z</time></trkpt><trkpt lat="49.46247362098996" lon="2.9770539152339937"><ele>92.0</ele><time>2026-04-07T09:01:58.999Z</time></trkpt><trkpt lat="49.462545442224624" lon="2.977100031865078"><ele>92.0</ele><time>2026-04-07T09:01:59.999Z</time></trkpt><trkpt lat="49.46261267346954" lon="2.9771458318234036"><ele>92.0</ele><time>2026-04-07T09:02:00.999Z</time></trkpt><trkpt lat="49.46267534315547" lon="2.977204079065263"><ele>92.0</ele><time>2026-04-07T09:02:01.999Z</time></trkpt><trkpt lat="49.462740194046866" lon="2.977247096753161"><ele>92.0</ele><time>2026-04-07T09:02:02.999Z</time></trkpt><trkpt lat="49.462817637389385" lon="2.9772967218942576"><ele>92.0</ele><time>2026-04-07T09:02:03.999Z</time></trkpt><trkpt lat="49.46289527877617" lon="2.9773370631998373"><ele>92.0</ele><time>2026-04-07T09:02:04.999Z</time></trkpt><trkpt lat="49.462970501289625" lon="2.97738095181328"><ele>91.0</ele><time>2026-04-07T09:02:05.999Z</time></trkpt><trkpt lat="49.46304396200801" lon="2.977427646043837"><ele>90.0</ele><time>2026-04-07T09:02:06.999Z</time></trkpt><trkpt lat="49.46311414324384" lon="2.9774741657043373"><ele>89.0</ele><time>2026-04-07T09:02:07.999Z</time></trkpt><trkpt lat="49.46319051943725" lon="2.977517936353857"><ele>88.0</ele><time>2026-04-07T09:02:08.999Z</time></trkpt><trkpt lat="49.46327522780181" lon="2.977576798618863"><ele>87.0</ele><time>2026-04-07T09:02:09.999Z</time></trkpt><trkpt lat="49.46334566977015" lon="2.9776239120806234"><ele>86.0</ele><time>2026-04-07T09:02:10.999Z</time></trkpt><trkpt lat="49.46341951414707" lon="2.9776672750065214"><ele>86.0</ele><time>2026-04-07T09:02:11.999Z</time></trkpt><trkpt lat="49.46349636056169" lon="2.977700924070754"><ele>86.0</ele><time>2026-04-07T09:02:12.999Z</time></trkpt><trkpt lat="49.4635686375565" lon="2.977757478703579"><ele>86.0</ele><time>2026-04-07T09:02:14Z</time></trkpt><trkpt lat="49.46365166661301" lon="2.9778031568341468"><ele>86.0</ele><time>2026-04-07T09:02:15Z</time></trkpt><trkpt lat="49.46373494230247" lon="2.9778312094377997"><ele>86.0</ele><time>2026-04-07T09:02:16Z</time></trkpt><trkpt lat="49.46381635807408" lon="2.9778662981934847"><ele>86.0</ele><time>2026-04-07T09:02:17Z</time></trkpt><trkpt lat="49.46389375541343" lon="2.977921448194992"><ele>85.6</ele><time>2026-04-07T09:02:18Z</time></trkpt><trkpt lat="49.46398056425509" lon="2.9779678187259337"><ele>85.19999999999999</ele><time>2026-04-07T09:02:19Z</time></trkpt><trkpt lat="49.464077176620336" lon="2.9780358933072"><ele>84.80000000000001</ele><time>2026-04-07T09:02:20Z</time></trkpt><trkpt lat="49.46416062342466" lon="2.9781012965923757"><ele>84.4</ele><time>2026-04-07T09:02:21Z</time></trkpt><trkpt lat="49.464253398671836" lon="2.9781706376653374"><ele>84.0</ele><time>2026-04-07T09:02:22Z</time></trkpt><trkpt lat="49.46436040799003" lon="2.9782346351132962"><ele>84.0</ele><time>2026-04-07T09:02:23Z</time></trkpt><trkpt lat="49.46445907220722" lon="2.9782954731561695"><ele>84.0</ele><time>2026-04-07T09:02:24Z</time></trkpt><trkpt lat="49.46453681092464" lon="2.9783491375052122"><ele>84.0</ele><time>2026-04-07T09:02:25Z</time></trkpt><trkpt lat="49.464640335605935" lon="2.9784198549090766"><ele>84.0</ele><time>2026-04-07T09:02:27Z</time></trkpt><trkpt lat="49.46473365162886" lon="2.9784878547824296"><ele>84.0</ele><time>2026-04-07T09:02:29Z</time></trkpt><trkpt lat="49.46482742306188" lon="2.9785624732720866"><ele>83.4</ele><time>2026-04-07T09:02:31Z</time></trkpt><trkpt lat="49.464943353230844" lon="2.9786122584957595"><ele>82.80000000000001</ele><time>2026-04-07T09:02:33Z</time></trkpt><trkpt lat="49.46501955527761" lon="2.978623005563428"><ele>82.19999999999999</ele><time>2026-04-07T09:02:34Z</time></trkpt><trkpt lat="49.465098096092895" lon="2.9786546498054283"><ele>81.6</ele><time>2026-04-07T09:02:35Z</time></trkpt><trkpt lat="49.46518277343442" lon="2.9787280659691997"><ele>81.0</ele><time>2026-04-07T09:02:36Z</time></trkpt><trkpt lat="49.46528385626184" lon="2.9787967782926286"><ele>81.0</ele><time>2026-04-07T09:02:37Z</time></trkpt><trkpt lat="49.46539158086646" lon="2.9788467094710467"><ele>81.0</ele><time>2026-04-07T09:02:38Z</time></trkpt><trkpt lat="49.46549748416672" lon="2.9788889814993085"><ele>81.0</ele><time>2026-04-07T09:02:39Z</time></trkpt><trkpt lat="49.46561285074009" lon="2.978941324415893"><ele>81.0</ele><time>2026-04-07T09:02:40Z</time></trkpt><trkpt lat="49.465728042734185" lon="2.9789769692314874"><ele>81.25</ele><time>2026-04-07T09:02:41Z</time></trkpt><trkpt lat="49.465835467248446" lon="2.9790292821413225"><ele>81.5</ele><time>2026-04-07T09:02:42Z</time></trkpt><trkpt lat="49.46594927563839" lon="2.979083255612793"><ele>81.75</ele><time>2026-04-07T09:02:43Z</time></trkpt><trkpt lat="49.46604367741172" lon="2.9791208914164256"><ele>82.0</ele><time>2026-04-07T09:02:44Z</time></trkpt><trkpt lat="49.46616275521636" lon="2.979164593449286"><ele>83.75</ele><time>2026-04-07T09:02:45Z</time></trkpt><trkpt lat="49.4663055240992" lon="2.9792695528383826"><ele>85.5</ele><time>2026-04-07T09:02:46Z</time></trkpt><trkpt lat="49.46643385258794" lon="2.9793441967736203"><ele>87.25</ele><time>2026-04-07T09:02:47Z</time></trkpt><trkpt lat="49.46653490579441" lon="2.9794035630592317"><ele>89.0</ele><time>2026-04-07T09:02:48Z</time></trkpt><trkpt lat="49.46664186099337" lon="2.979442482768871"><ele>89.0</ele><time>2026-04-07T09:02:49Z</time></trkpt><trkpt lat="49.46675621391834" lon="2.979516218007264"><ele>89.0</ele><time>2026-04-07T09:02:50Z</time></trkpt><trkpt lat="49.46687573347898" lon="2.979582383609535"><ele>89.0</ele><time>2026-04-07T09:02:51Z</time></trkpt><trkpt lat="49.46699117297863" lon="2.9796511920667696"><ele>89.0</ele><time>2026-04-07T09:02:52Z</time></trkpt><trkpt lat="49.467122455016145" lon="2.979744957008996"><ele>89.25</ele><time>2026-04-07T09:02:53Z</time></trkpt><trkpt lat="49.46723009368372" lon="2.979810448292016"><ele>89.5</ele><time>2026-04-07T09:02:54Z</time></trkpt><trkpt lat="49.46734494579211" lon="2.9799033867623494"><ele>89.75</ele><time>2026-04-07T09:02:55Z</time></trkpt><trkpt lat="49.46746255403659" lon="2.9799865526880103"><ele>90.0</ele><time>2026-04-07T09:02:56Z</time></trkpt><trkpt lat="49.46757377211408" lon="2.980066044976685"><ele>90.0</ele><time>2026-04-07T09:02:57Z</time></trkpt><trkpt lat="49.46767240369729" lon="2.9801365411758116"><ele>90.0</ele><time>2026-04-07T09:02:58Z</time></trkpt><trkpt lat="49.46777398152298" lon="2.980211535405779"><ele>90.0</ele><time>2026-04-07T09:02:59Z</time></trkpt><trkpt lat="49.4678781100386" lon="2.980288351137744"><ele>90.0</ele><time>2026-04-07T09:03:00Z</time></trkpt><trkpt lat="49.46797683743177" lon="2.9803611824635614"><ele>90.0</ele><time>2026-04-07T09:03:01Z</time></trkpt><trkpt lat="49.468088093545894" lon="2.9804432562330323"><ele>89.0</ele><time>2026-04-07T09:03:02Z</time></trkpt><trkpt lat="49.46819939193611" lon="2.9805350027389106"><ele>88.0</ele><time>2026-04-07T09:03:03Z</time></trkpt><trkpt lat="49.46830294431163" lon="2.9806100080800055"><ele>87.0</ele><time>2026-04-07T09:03:04Z</time></trkpt><trkpt lat="49.46839890939302" lon="2.9807109206594173"><ele>86.0</ele><time>2026-04-07T09:03:04.999Z</time></trkpt><trkpt lat="49.46849508738953" lon="2.980815659824093"><ele>85.8</ele><time>2026-04-07T09:03:05.999Z</time></trkpt><trkpt lat="49.46858204931223" lon="2.9809156836947133"><ele>85.6</ele><time>2026-04-07T09:03:06.999Z</time></trkpt><trkpt lat="49.46866082212461" lon="2.9810071818399413"><ele>85.4</ele><time>2026-04-07T09:03:07.999Z</time></trkpt><trkpt lat="49.46873727620817" lon="2.981096414726193"><ele>85.2</ele><time>2026-04-07T09:03:08.999Z</time></trkpt><trkpt lat="49.468799251518774" lon="2.981194630247628"><ele>85.0</ele><time>2026-04-07T09:03:09.999Z</time></trkpt><trkpt lat="49.468885060821144" lon="2.981256158373234"><ele>85.0</ele><time>2026-04-07T09:03:10.999Z</time></trkpt><trkpt lat="49.46896261408121" lon="2.98134137406517"><ele>85.0</ele><time>2026-04-07T09:03:11.999Z</time></trkpt><trkpt lat="49.46904999981759" lon="2.981377662167143"><ele>85.0</ele><time>2026-04-07T09:03:12.999Z</time></trkpt><trkpt lat="49.46913380302266" lon="2.9814292920224976"><ele>85.0</ele><time>2026-04-07T09:03:13.999Z</time></trkpt><trkpt lat="49.46921234330528" lon="2.981490915828398"><ele>85.0</ele><time>2026-04-07T09:03:14.999Z</time></trkpt><trkpt lat="49.46928571553993" lon="2.9815100143442685"><ele>85.0</ele><time>2026-04-07T09:03:15.999Z</time></trkpt><trkpt lat="49.46934901900785" lon="2.9815400184018754"><ele>85.0</ele><time>2026-04-07T09:03:16.999Z</time></trkpt><trkpt lat="49.46942038743156" lon="2.981571653358321"><ele>85.0</ele><time>2026-04-07T09:03:17.999Z</time></trkpt><trkpt lat="49.46950547406008" lon="2.981605329487422"><ele>85.0</ele><time>2026-04-07T09:03:18.999Z</time></trkpt><trkpt lat="49.46959830601209" lon="2.9816364089543157"><ele>85.0</ele><time>2026-04-07T09:03:19.999Z</time></trkpt><trkpt lat="49.46970751399047" lon="2.981682411801502"><ele>85.0</ele><time>2026-04-07T09:03:20.999Z</time></trkpt><trkpt lat="49.469809587762356" lon="2.9817090248030107"><ele>85.2</ele><time>2026-04-07T09:03:21.999Z</time></trkpt><trkpt lat="49.46992729335039" lon="2.9817012788438055"><ele>85.4</ele><time>2026-04-07T09:03:22.999Z</time></trkpt><trkpt lat="49.4700200325569" lon="2.9817006709211173"><ele>85.6</ele><time>2026-04-07T09:03:23.999Z</time></trkpt><trkpt lat="49.47011200551206" lon="2.981697816205322"><ele>85.8</ele><time>2026-04-07T09:03:24.999Z</time></trkpt><trkpt lat="49.470200651384516" lon="2.9816922780774116"><ele>86.0</ele><time>2026-04-07T09:03:25.999Z</time></trkpt><trkpt lat="49.47029651703322" lon="2.981678005735313"><ele>86.66666666666667</ele><time>2026-04-07T09:03:26.999Z</time></trkpt><trkpt lat="49.470417029542354" lon="2.9816899234674756"><ele>87.33333333333333</ele><time>2026-04-07T09:03:27.999Z</time></trkpt><trkpt lat="49.470604086949464" lon="2.9816690801776526"><ele>88.0</ele><time>2026-04-07T09:03:28.999Z</time></trkpt><trkpt lat="49.470805941673454" lon="2.981621132194838"><ele>88.0</ele><time>2026-04-07T09:03:29.999Z</time></trkpt><trkpt lat="49.47103039616928" lon="2.981603607679016"><ele>88.0</ele><time>2026-04-07T09:03:30.999Z</time></trkpt><trkpt lat="49.47126128659167" lon="2.981615021155338"><ele>88.33333333333333</ele><time>2026-04-07T09:03:31.999Z</time></trkpt><trkpt lat="49.471461347991216" lon="2.9816059534158663"><ele>88.66666666666667</ele><time>2026-04-07T09:03:32.999Z</time></trkpt><trkpt lat="49.471622363586086" lon="2.981598655423054"><ele>89.0</ele><time>2026-04-07T09:03:33.999Z</time></trkpt><trkpt lat="49.47176951690308" lon="2.9815919183480544"><ele>89.0</ele><time>2026-04-07T09:03:34.999Z</time></trkpt><trkpt lat="49.47190089766229" lon="2.981585020372458"><ele>89.0</ele><time>2026-04-07T09:03:35.999Z</time></trkpt><trkpt lat="49.472032724565274" lon="2.9815771725049696"><ele>89.0</ele><time>2026-04-07T09:03:36.999Z</time></trkpt><trkpt lat="49.47215127631636" lon="2.981568598353886"><ele>89.0</ele><time>2026-04-07T09:03:37.999Z</time></trkpt><trkpt lat="49.47226937250619" lon="2.981556200824682"><ele>90.2</ele><time>2026-04-07T09:03:38.999Z</time></trkpt><trkpt lat="49.47239693954546" lon="2.9815300464906196"><ele>91.4</ele><time>2026-04-07T09:03:39.999Z</time></trkpt><trkpt lat="49.47251026443424" lon="2.981502291891277"><ele>92.6</ele><time>2026-04-07T09:03:40.999Z</time></trkpt><trkpt lat="49.47261602828543" lon="2.9815105636132437"><ele>93.8</ele><time>2026-04-07T09:03:41.999Z</time></trkpt><trkpt lat="49.47270679585431" lon="2.9814787106464515"><ele>95.0</ele><time>2026-04-07T09:03:42.999Z</time></trkpt><trkpt lat="49.47279207597187" lon="2.981489664117826"><ele>95.0</ele><time>2026-04-07T09:03:43.999Z</time></trkpt><trkpt lat="49.47286786520291" lon="2.981482977697065"><ele>95.0</ele><time>2026-04-07T09:03:44.999Z</time></trkpt><trkpt lat="49.47293425655674" lon="2.981469534069132"><ele>95.0</ele><time>2026-04-07T09:03:45.999Z</time></trkpt><trkpt lat="49.47299907517318" lon="2.9814525261009157"><ele>95.0</ele><time>2026-04-07T09:03:46.999Z</time></trkpt><trkpt lat="49.47307215718845" lon="2.9814743240694805"><ele>95.0</ele><time>2026-04-07T09:03:47.999Z</time></trkpt><trkpt lat="49.47314247528594" lon="2.9814763882532014"><ele>95.0</ele><time>2026-04-07T09:03:48.999Z</time></trkpt><trkpt lat="49.473236510605766" lon="2.9814834984488328"><ele>95.0</ele><time>2026-04-07T09:03:49.999Z</time></trkpt><trkpt lat="49.473327245502176" lon="2.9814953734675207"><ele>95.4</ele><time>2026-04-07T09:03:50.999Z</time></trkpt><trkpt lat="49.47341940375169" lon="2.981511793408645"><ele>95.8</ele><time>2026-04-07T09:03:51.999Z</time></trkpt><trkpt lat="49.473514184539304" lon="2.981533486444196"><ele>96.19999999999999</ele><time>2026-04-07T09:03:52.999Z</time></trkpt><trkpt lat="49.47361447836814" lon="2.9815632663860927"><ele>96.6</ele><time>2026-04-07T09:03:53.999Z</time></trkpt><trkpt lat="49.4737125647567" lon="2.981600266972684"><ele>97.0</ele><time>2026-04-07T09:03:54.999Z</time></trkpt><trkpt lat="49.47379339065114" lon="2.981636729825209"><ele>97.66666666666667</ele><time>2026-04-07T09:03:55.999Z</time></trkpt><trkpt lat="49.47388355400576" lon="2.981683417804309"><ele>98.33333333333334</ele><time>2026-04-07T09:03:56.999Z</time></trkpt><trkpt lat="49.47396755634518" lon="2.9817103901643596"><ele>99.0</ele><time>2026-04-07T09:03:57.999Z</time></trkpt><trkpt lat="49.47403842801807" lon="2.9817507803573937"><ele>99.66666666666666</ele><time>2026-04-07T09:03:58.999Z</time></trkpt><trkpt lat="49.47411727202316" lon="2.9817977040307713"><ele>100.33333333333333</ele><time>2026-04-07T09:03:59.999Z</time></trkpt><trkpt lat="49.474171348900335" lon="2.981866382598487"><ele>101.0</ele><time>2026-04-07T09:04:00.999Z</time></trkpt><trkpt lat="49.47424248498067" lon="2.9819204730292834"><ele>101.0</ele><time>2026-04-07T09:04:01.999Z</time></trkpt><trkpt lat="49.47432594089142" lon="2.981986724211012"><ele>101.0</ele><time>2026-04-07T09:04:02.999Z</time></trkpt><trkpt lat="49.47443189300029" lon="2.9820777478968172"><ele>101.0</ele><time>2026-04-07T09:04:03.999Z</time></trkpt><trkpt lat="49.47453467979649" lon="2.982171093204384"><ele>101.0</ele><time>2026-04-07T09:04:04.999Z</time></trkpt><trkpt lat="49.474642497885135" lon="2.9822467710762215"><ele>99.6</ele><time>2026-04-07T09:04:05.999Z</time></trkpt><trkpt lat="49.47473375738144" lon="2.9823381190096554"><ele>98.19999999999999</ele><time>2026-04-07T09:04:06.999Z</time></trkpt><trkpt lat="49.47481667438726" lon="2.982422689801416"><ele>96.80000000000001</ele><time>2026-04-07T09:04:07.999Z</time></trkpt><trkpt lat="49.4748943021208" lon="2.982509541412878"><ele>95.4</ele><time>2026-04-07T09:04:08.999Z</time></trkpt><trkpt lat="49.474964369794534" lon="2.9826126491654343"><ele>94.0</ele><time>2026-04-07T09:04:09.999Z</time></trkpt><trkpt lat="49.47503891064013" lon="2.982711056303376"><ele>94.0</ele><time>2026-04-07T09:04:10.999Z</time></trkpt><trkpt lat="49.47510418926437" lon="2.9828112469304258"><ele>94.0</ele><time>2026-04-07T09:04:11.999Z</time></trkpt><trkpt lat="49.47516664479694" lon="2.982913762213966"><ele>94.0</ele><time>2026-04-07T09:04:12.999Z</time></trkpt><trkpt lat="49.47521234990506" lon="2.9829906476522483"><ele>94.0</ele><time>2026-04-07T09:04:13.999Z</time></trkpt><trkpt lat="49.47525634579043" lon="2.983064169080452"><ele>94.0</ele><time>2026-04-07T09:04:14.999Z</time></trkpt><trkpt lat="49.4753102268097" lon="2.9831176880603674"><ele>94.0</ele><time>2026-04-07T09:04:15.999Z</time></trkpt><trkpt lat="49.47536243361574" lon="2.9831852564195795"><ele>94.0</ele><time>2026-04-07T09:04:16.999Z</time></trkpt><trkpt lat="49.47543379406583" lon="2.9833260837173965"><ele>91.83333333333333</ele><time>2026-04-07T09:04:18.999Z</time></trkpt><trkpt lat="49.47552742998539" lon="2.983362398839784"><ele>89.66666666666666</ele><time>2026-04-07T09:04:21Z</time></trkpt><trkpt lat="49.47559565541653" lon="2.983397617933627"><ele>87.5</ele><time>2026-04-07T09:04:23Z</time></trkpt><trkpt lat="49.47560990853607" lon="2.983526325556365"><ele>85.33333333333333</ele><time>2026-04-07T09:04:24Z</time></trkpt><trkpt lat="49.47566030014298" lon="2.9836000474387485"><ele>83.16666666666667</ele><time>2026-04-07T09:04:25Z</time></trkpt><trkpt lat="49.4757087309048" lon="2.983711847390526"><ele>81.0</ele><time>2026-04-07T09:04:26Z</time></trkpt><trkpt lat="49.47575993150547" lon="2.9838446767963402"><ele>81.0</ele><time>2026-04-07T09:04:27Z</time></trkpt><trkpt lat="49.475815882620786" lon="2.9839926410728363"><ele>81.0</ele><time>2026-04-07T09:04:28Z</time></trkpt><trkpt lat="49.475876115798705" lon="2.984133265478648"><ele>81.0</ele><time>2026-04-07T09:04:29Z</time></trkpt><trkpt lat="49.475939012895324" lon="2.9842638423321834"><ele>81.0</ele><time>2026-04-07T09:04:30Z</time></trkpt><trkpt lat="49.47599596819176" lon="2.9844001716404445"><ele>81.0</ele><time>2026-04-07T09:04:31Z</time></trkpt><trkpt lat="49.47605156789149" lon="2.9845340945520076"><ele>82.0</ele><time>2026-04-07T09:04:32Z</time></trkpt><trkpt lat="49.47610022347915" lon="2.9846742885259476"><ele>83.0</ele><time>2026-04-07T09:04:33Z</time></trkpt><trkpt lat="49.47616106192253" lon="2.984819583299039"><ele>84.0</ele><time>2026-04-07T09:04:34Z</time></trkpt><trkpt lat="49.47622252711361" lon="2.9849715167716298"><ele>85.0</ele><time>2026-04-07T09:04:35Z</time></trkpt><trkpt lat="49.47628936981849" lon="2.98513083024552"><ele>85.0</ele><time>2026-04-07T09:04:36Z</time></trkpt><trkpt lat="49.47635848262998" lon="2.9852863674165326"><ele>85.0</ele><time>2026-04-07T09:04:37Z</time></trkpt><trkpt lat="49.47642491727197" lon="2.985442342232328"><ele>85.0</ele><time>2026-04-07T09:04:38Z</time></trkpt><trkpt lat="49.4764874640512" lon="2.9855970842155855"><ele>85.0</ele><time>2026-04-07T09:04:39Z</time></trkpt><trkpt lat="49.47655311518912" lon="2.985747841921311"><ele>86.2</ele><time>2026-04-07T09:04:40Z</time></trkpt><trkpt lat="49.47661395009789" lon="2.9858976307279836"><ele>87.4</ele><time>2026-04-07T09:04:41Z</time></trkpt><trkpt lat="49.476668452593806" lon="2.986044901942867"><ele>88.6</ele><time>2026-04-07T09:04:42Z</time></trkpt><trkpt lat="49.4767252956333" lon="2.9861882545824585"><ele>89.8</ele><time>2026-04-07T09:04:43Z</time></trkpt><trkpt lat="49.476785247704264" lon="2.9863323226426584"><ele>91.0</ele><time>2026-04-07T09:04:44Z</time></trkpt><trkpt lat="49.47684734949699" lon="2.9864855650694744"><ele>91.0</ele><time>2026-04-07T09:04:45Z</time></trkpt><trkpt lat="49.47691332854178" lon="2.986634335272689"><ele>91.0</ele><time>2026-04-07T09:04:46Z</time></trkpt><trkpt lat="49.47697183047973" lon="2.986786968752438"><ele>91.0</ele><time>2026-04-07T09:04:47Z</time></trkpt><trkpt lat="49.47702734369301" lon="2.9869479896258966"><ele>91.0</ele><time>2026-04-07T09:04:48Z</time></trkpt><trkpt lat="49.477089434790074" lon="2.9871013000805875"><ele>89.0</ele><time>2026-04-07T09:04:49Z</time></trkpt><trkpt lat="49.47715554171671" lon="2.98725280535734"><ele>87.0</ele><time>2026-04-07T09:04:50Z</time></trkpt><trkpt lat="49.4772105825453" lon="2.9874030992050487"><ele>85.0</ele><time>2026-04-07T09:04:51Z</time></trkpt><trkpt lat="49.47726356687402" lon="2.987562508719547"><ele>83.0</ele><time>2026-04-07T09:04:52Z</time></trkpt><trkpt lat="49.47731183087335" lon="2.9877316667070346"><ele>82.5</ele><time>2026-04-07T09:04:53Z</time></trkpt><trkpt lat="49.477350722121315" lon="2.987901813642746"><ele>82.0</ele><time>2026-04-07T09:04:54Z</time></trkpt><trkpt lat="49.4773839301299" lon="2.9880721703099216"><ele>81.5</ele><time>2026-04-07T09:04:55Z</time></trkpt><trkpt lat="49.47741455157019" lon="2.9882389353699765"><ele>81.0</ele><time>2026-04-07T09:04:56Z</time></trkpt><trkpt lat="49.477440984304685" lon="2.9884183536920785"><ele>80.0</ele><time>2026-04-07T09:04:57Z</time></trkpt><trkpt lat="49.4774641763785" lon="2.988606777245527"><ele>79.0</ele><time>2026-04-07T09:04:58Z</time></trkpt><trkpt lat="49.47748650359066" lon="2.988800186822008"><ele>78.0</ele><time>2026-04-07T09:04:59Z</time></trkpt><trkpt lat="49.47751132066878" lon="2.9889915742441278"><ele>77.0</ele><time>2026-04-07T09:05:00Z</time></trkpt><trkpt lat="49.47753806216397" lon="2.98917487905792"><ele>77.25</ele><time>2026-04-07T09:05:01Z</time></trkpt><trkpt lat="49.47756119031612" lon="2.989355973380931"><ele>77.5</ele><time>2026-04-07T09:05:02Z</time></trkpt><trkpt lat="49.477581710982406" lon="2.9895383176881647"><ele>77.75</ele><time>2026-04-07T09:05:03Z</time></trkpt><trkpt lat="49.477602048596175" lon="2.989714102232477"><ele>78.0</ele><time>2026-04-07T09:05:04Z</time></trkpt><trkpt lat="49.477621483060425" lon="2.9898828024961666"><ele>79.5</ele><time>2026-04-07T09:05:05Z</time></trkpt><trkpt lat="49.4776426733762" lon="2.9900597190753277"><ele>81.0</ele><time>2026-04-07T09:05:06Z</time></trkpt><trkpt lat="49.477665002442144" lon="2.9902347529577327"><ele>82.5</ele><time>2026-04-07T09:05:07Z</time></trkpt><trkpt lat="49.477688716324955" lon="2.990405571033798"><ele>84.0</ele><time>2026-04-07T09:05:08Z</time></trkpt><trkpt lat="49.47771173126221" lon="2.9905885543417394"><ele>84.0</ele><time>2026-04-07T09:05:09Z</time></trkpt><trkpt lat="49.477730232546634" lon="2.9907754320726285"><ele>84.0</ele><time>2026-04-07T09:05:10Z</time></trkpt><trkpt lat="49.477744729584046" lon="2.9909668891472623"><ele>84.0</ele><time>2026-04-07T09:05:11Z</time></trkpt><trkpt lat="49.47775872739962" lon="2.991166355748779"><ele>84.0</ele><time>2026-04-07T09:05:12Z</time></trkpt><trkpt lat="49.47777180565857" lon="2.991372293054407"><ele>85.75</ele><time>2026-04-07T09:05:13Z</time></trkpt><trkpt lat="49.4777903086292" lon="2.991587374753511"><ele>87.5</ele><time>2026-04-07T09:05:14Z</time></trkpt><trkpt lat="49.47780429875486" lon="2.9918260529611445"><ele>89.25</ele><time>2026-04-07T09:05:15Z</time></trkpt><trkpt lat="49.477812386862645" lon="2.992042744026793"><ele>91.0</ele><time>2026-04-07T09:05:16Z</time></trkpt><trkpt lat="49.4778167085158" lon="2.9922443514467534"><ele>91.25</ele><time>2026-04-07T09:05:17Z</time></trkpt><trkpt lat="49.4778214395695" lon="2.9924371851027693"><ele>91.5</ele><time>2026-04-07T09:05:18Z</time></trkpt><trkpt lat="49.477828440615184" lon="2.992637481726223"><ele>91.75</ele><time>2026-04-07T09:05:19Z</time></trkpt><trkpt lat="49.47783664264253" lon="2.992827475626583"><ele>92.0</ele><time>2026-04-07T09:05:20Z</time></trkpt><trkpt lat="49.477840245337696" lon="2.993018043957153"><ele>92.25</ele><time>2026-04-07T09:05:21Z</time></trkpt><trkpt lat="49.47784535737425" lon="2.993206159139793"><ele>92.5</ele><time>2026-04-07T09:05:22Z</time></trkpt><trkpt lat="49.47785158260957" lon="2.9933882154141167"><ele>92.75</ele><time>2026-04-07T09:05:22.999Z</time></trkpt><trkpt lat="49.47785391100366" lon="2.9935645985421813"><ele>93.0</ele><time>2026-04-07T09:05:23.999Z</time></trkpt><trkpt lat="49.47785835800742" lon="2.993746680183485"><ele>93.0</ele><time>2026-04-07T09:05:24.999Z</time></trkpt><trkpt lat="49.47786173293129" lon="2.9939395347179114"><ele>93.0</ele><time>2026-04-07T09:05:25.999Z</time></trkpt><trkpt lat="49.4778633759757" lon="2.9941277957050647"><ele>93.0</ele><time>2026-04-07T09:05:26.999Z</time></trkpt><trkpt lat="49.477861965976125" lon="2.9943106186471993"><ele>93.0</ele><time>2026-04-07T09:05:27.999Z</time></trkpt><trkpt lat="49.47785540660367" lon="2.994484982819925"><ele>93.0</ele><time>2026-04-07T09:05:28.999Z</time></trkpt><trkpt lat="49.477837395501815" lon="2.9946619297297823"><ele>93.0</ele><time>2026-04-07T09:05:29.999Z</time></trkpt><trkpt lat="49.47781490610331" lon="2.994833888619893"><ele>93.0</ele><time>2026-04-07T09:05:30.999Z</time></trkpt><trkpt lat="49.47779358348651" lon="2.9950076708585196"><ele>93.0</ele><time>2026-04-07T09:05:31.999Z</time></trkpt><trkpt lat="49.47777672665623" lon="2.9951817486963104"><ele>90.4</ele><time>2026-04-07T09:05:32.999Z</time></trkpt><trkpt lat="49.477758759712664" lon="2.995349968650495"><ele>87.80000000000001</ele><time>2026-04-07T09:05:33.999Z</time></trkpt><trkpt lat="49.47774018126826" lon="2.995511431349068"><ele>85.2</ele><time>2026-04-07T09:05:34.999Z</time></trkpt><trkpt lat="49.47771964690126" lon="2.995671463593411"><ele>82.6</ele><time>2026-04-07T09:05:35.999Z</time></trkpt><trkpt lat="49.47770132559644" lon="2.9958304251901904"><ele>80.0</ele><time>2026-04-07T09:05:36.999Z</time></trkpt><trkpt lat="49.47768645983012" lon="2.995983089271378"><ele>78.4</ele><time>2026-04-07T09:05:37.999Z</time></trkpt><trkpt lat="49.47767084750778" lon="2.99613725223409"><ele>76.8</ele><time>2026-04-07T09:05:38.999Z</time></trkpt><trkpt lat="49.47766214756152" lon="2.996291495094633"><ele>75.2</ele><time>2026-04-07T09:05:39.999Z</time></trkpt><trkpt lat="49.47766494002776" lon="2.9964524352192203"><ele>73.6</ele><time>2026-04-07T09:05:40.999Z</time></trkpt><trkpt lat="49.477676010885034" lon="2.9966264417053616"><ele>72.0</ele><time>2026-04-07T09:05:41.999Z</time></trkpt><trkpt lat="49.47769292017443" lon="2.9967997529446913"><ele>72.0</ele><time>2026-04-07T09:05:42.999Z</time></trkpt><trkpt lat="49.47770821980991" lon="2.996974334113135"><ele>72.0</ele><time>2026-04-07T09:05:43.999Z</time></trkpt><trkpt lat="49.47772116755088" lon="2.99714595142812"><ele>72.0</ele><time>2026-04-07T09:05:44.999Z</time></trkpt><trkpt lat="49.477731712014176" lon="2.9973120024873134"><ele>72.0</ele><time>2026-04-07T09:05:45.999Z</time></trkpt><trkpt lat="49.47773650616918" lon="2.9974724137180844"><ele>72.0</ele><time>2026-04-07T09:05:46.999Z</time></trkpt><trkpt lat="49.47773649900977" lon="2.997639948463595"><ele>72.0</ele><time>2026-04-07T09:05:47.999Z</time></trkpt><trkpt lat="49.47772632104322" lon="2.9977934642268136"><ele>72.0</ele><time>2026-04-07T09:05:48.999Z</time></trkpt><trkpt lat="49.477709988624035" lon="2.9979456935785262"><ele>72.0</ele><time>2026-04-07T09:05:49.999Z</time></trkpt><trkpt lat="49.477687792116065" lon="2.9980990732689237"><ele>72.0</ele><time>2026-04-07T09:05:50.999Z</time></trkpt><trkpt lat="49.47767015371231" lon="2.9982383063907103"><ele>72.0</ele><time>2026-04-07T09:05:51.999Z</time></trkpt><trkpt lat="49.47765396938392" lon="2.998373505599931"><ele>70.0</ele><time>2026-04-07T09:05:52.999Z</time></trkpt><trkpt lat="49.477646208334065" lon="2.9985005307147508"><ele>70.0</ele><time>2026-04-07T09:05:53.999Z</time></trkpt><trkpt lat="49.4776461562989" lon="2.998611343918276"><ele>70.0</ele><time>2026-04-07T09:05:54.999Z</time></trkpt></trkseg></trk></gpx>